<?xml version="1.0" encoding="UTF-8" standalone="no" ?>
<gpx xmlns="http://www.topografix.com/GPX/1/1" xmlns:xsi="http://www.w3.org/2001/XMLSchema-instance" xsi:schemaLocation="http://www.topografix.com/GPX/1/1 http://www.topografix.com/GPX/1/1/gpx.xsd" version="1.1" creator="VisuGPX - https://www.visugpx.com">
  <metadata>
    <name>VTT dans le Royan</name>
    <desc><![CDATA[Quelques chemins roulant dans le pays du Royans/Vercors]]></desc>
  </metadata>
  <trk>
    <name><![CDATA[vtt dans le royans]]></name>
    <desc><![CDATA[quelques portions sympas]]></desc>
    <trkseg>
      <trkpt lat="45.0463" lon="5.34409">
        <ele>298.60000610352</ele>
        <time>2012-07-06T13:27:10.000Z</time>
      </trkpt>
      <trkpt lat="45.04622" lon="5.34435">
        <ele>304.79998779297</ele>
        <time>2012-07-06T13:27:16.000Z</time>
      </trkpt>
      <trkpt lat="45.0462" lon="5.34456">
        <ele>306.20001220703</ele>
        <time>2012-07-06T13:27:21.000Z</time>
      </trkpt>
      <trkpt lat="45.04617" lon="5.34464">
        <ele>306.60000610352</ele>
        <time>2012-07-06T13:27:23.000Z</time>
      </trkpt>
      <trkpt lat="45.04603" lon="5.34466">
        <ele>310</ele>
        <time>2012-07-06T13:27:29.000Z</time>
      </trkpt>
      <trkpt lat="45.04583" lon="5.34457">
        <ele>314.39999389648</ele>
        <time>2012-07-06T13:27:37.000Z</time>
      </trkpt>
      <trkpt lat="45.04562" lon="5.34448">
        <ele>317.20001220703</ele>
        <time>2012-07-06T13:27:45.000Z</time>
      </trkpt>
      <trkpt lat="45.04539" lon="5.34435">
        <ele>320.20001220703</ele>
        <time>2012-07-06T13:27:54.000Z</time>
      </trkpt>
      <trkpt lat="45.04522" lon="5.34425">
        <ele>318.20001220703</ele>
        <time>2012-07-06T13:28:02.000Z</time>
      </trkpt>
      <trkpt lat="45.04517" lon="5.34424">
        <ele>318.79998779297</ele>
        <time>2012-07-06T13:28:07.000Z</time>
      </trkpt>
      <trkpt lat="45.04503" lon="5.34416">
        <ele>318.79998779297</ele>
        <time>2012-07-06T13:28:13.000Z</time>
      </trkpt>
      <trkpt lat="45.04481" lon="5.34403">
        <ele>320.20001220703</ele>
        <time>2012-07-06T13:28:20.000Z</time>
      </trkpt>
      <trkpt lat="45.04462" lon="5.34393">
        <ele>319.20001220703</ele>
        <time>2012-07-06T13:28:26.000Z</time>
      </trkpt>
      <trkpt lat="45.0444" lon="5.34382">
        <ele>320.60000610352</ele>
        <time>2012-07-06T13:28:33.000Z</time>
      </trkpt>
      <trkpt lat="45.04417" lon="5.34369">
        <ele>325</ele>
        <time>2012-07-06T13:28:41.000Z</time>
      </trkpt>
      <trkpt lat="45.04397" lon="5.34359">
        <ele>326</ele>
        <time>2012-07-06T13:28:48.000Z</time>
      </trkpt>
      <trkpt lat="45.04378" lon="5.3435">
        <ele>327.39999389648</ele>
        <time>2012-07-06T13:28:55.000Z</time>
      </trkpt>
      <trkpt lat="45.04353" lon="5.34337">
        <ele>329.79998779297</ele>
        <time>2012-07-06T13:29:04.000Z</time>
      </trkpt>
      <trkpt lat="45.0433" lon="5.34329">
        <ele>333.60000610352</ele>
        <time>2012-07-06T13:29:11.000Z</time>
      </trkpt>
      <trkpt lat="45.0431" lon="5.34324">
        <ele>336</ele>
        <time>2012-07-06T13:29:17.000Z</time>
      </trkpt>
      <trkpt lat="45.04292" lon="5.34322">
        <ele>342.79998779297</ele>
        <time>2012-07-06T13:29:22.000Z</time>
      </trkpt>
      <trkpt lat="45.04269" lon="5.34319">
        <ele>352.39999389648</ele>
        <time>2012-07-06T13:29:29.000Z</time>
      </trkpt>
      <trkpt lat="45.04242" lon="5.34319">
        <ele>352.39999389648</ele>
        <time>2012-07-06T13:29:38.000Z</time>
      </trkpt>
      <trkpt lat="45.04223" lon="5.34321">
        <ele>351</ele>
        <time>2012-07-06T13:29:45.000Z</time>
      </trkpt>
      <trkpt lat="45.04199" lon="5.34321">
        <ele>352.39999389648</ele>
        <time>2012-07-06T13:29:53.000Z</time>
      </trkpt>
      <trkpt lat="45.04168" lon="5.34318">
        <ele>356.60000610352</ele>
        <time>2012-07-06T13:30:03.000Z</time>
      </trkpt>
      <trkpt lat="45.04152" lon="5.34317">
        <ele>357.20001220703</ele>
        <time>2012-07-06T13:30:09.000Z</time>
      </trkpt>
      <trkpt lat="45.04134" lon="5.34306">
        <ele>355.20001220703</ele>
        <time>2012-07-06T13:30:15.000Z</time>
      </trkpt>
      <trkpt lat="45.04109" lon="5.34286">
        <ele>354.20001220703</ele>
        <time>2012-07-06T13:30:23.000Z</time>
      </trkpt>
      <trkpt lat="45.0409" lon="5.34281">
        <ele>354.79998779297</ele>
        <time>2012-07-06T13:30:29.000Z</time>
      </trkpt>
      <trkpt lat="45.04072" lon="5.34285">
        <ele>356.20001220703</ele>
        <time>2012-07-06T13:30:35.000Z</time>
      </trkpt>
      <trkpt lat="45.04052" lon="5.34285">
        <ele>357.60000610352</ele>
        <time>2012-07-06T13:30:41.000Z</time>
      </trkpt>
      <trkpt lat="45.04032" lon="5.34271">
        <ele>358.20001220703</ele>
        <time>2012-07-06T13:30:47.000Z</time>
      </trkpt>
      <trkpt lat="45.04012" lon="5.34252">
        <ele>360</ele>
        <time>2012-07-06T13:30:52.000Z</time>
      </trkpt>
      <trkpt lat="45.03989" lon="5.34234">
        <ele>363.39999389648</ele>
        <time>2012-07-06T13:30:56.000Z</time>
      </trkpt>
      <trkpt lat="45.03975" lon="5.34224">
        <ele>364.79998779297</ele>
        <time>2012-07-06T13:30:58.000Z</time>
      </trkpt>
      <trkpt lat="45.03941" lon="5.34217">
        <ele>363</ele>
        <time>2012-07-06T13:31:02.000Z</time>
      </trkpt>
      <trkpt lat="45.03894" lon="5.34216">
        <ele>362.39999389648</ele>
        <time>2012-07-06T13:31:08.000Z</time>
      </trkpt>
      <trkpt lat="45.03849" lon="5.34208">
        <ele>361</ele>
        <time>2012-07-06T13:31:15.000Z</time>
      </trkpt>
      <trkpt lat="45.03809" lon="5.3419">
        <ele>358.20001220703</ele>
        <time>2012-07-06T13:31:21.000Z</time>
      </trkpt>
      <trkpt lat="45.03783" lon="5.34181">
        <ele>357.20001220703</ele>
        <time>2012-07-06T13:31:26.000Z</time>
      </trkpt>
      <trkpt lat="45.03778" lon="5.34181">
        <ele>356.60000610352</ele>
        <time>2012-07-06T13:31:27.000Z</time>
      </trkpt>
      <trkpt lat="45.03768" lon="5.34184">
        <ele>356.60000610352</ele>
        <time>2012-07-06T13:31:30.000Z</time>
      </trkpt>
      <trkpt lat="45.03757" lon="5.34188">
        <ele>355.20001220703</ele>
        <time>2012-07-06T13:31:36.000Z</time>
      </trkpt>
      <trkpt lat="45.03744" lon="5.34188">
        <ele>354.20001220703</ele>
        <time>2012-07-06T13:31:42.000Z</time>
      </trkpt>
      <trkpt lat="45.03722" lon="5.34184">
        <ele>355.79998779297</ele>
        <time>2012-07-06T13:31:48.000Z</time>
      </trkpt>
      <trkpt lat="45.03709" lon="5.34182">
        <ele>357.20001220703</ele>
        <time>2012-07-06T13:31:53.000Z</time>
      </trkpt>
      <trkpt lat="45.03708" lon="5.3418">
        <ele>357.20001220703</ele>
        <time>2012-07-06T13:31:59.000Z</time>
      </trkpt>
      <trkpt lat="45.03707" lon="5.3418">
        <ele>358.20001220703</ele>
        <time>2012-07-06T13:32:06.000Z</time>
      </trkpt>
      <trkpt lat="45.03694" lon="5.34182">
        <ele>358.20001220703</ele>
        <time>2012-07-06T13:32:12.000Z</time>
      </trkpt>
      <trkpt lat="45.03671" lon="5.34187">
        <ele>358.20001220703</ele>
        <time>2012-07-06T13:32:17.000Z</time>
      </trkpt>
      <trkpt lat="45.03645" lon="5.34194">
        <ele>356.20001220703</ele>
        <time>2012-07-06T13:32:23.000Z</time>
      </trkpt>
      <trkpt lat="45.03623" lon="5.34198">
        <ele>356.20001220703</ele>
        <time>2012-07-06T13:32:28.000Z</time>
      </trkpt>
      <trkpt lat="45.03614" lon="5.34197">
        <ele>356.60000610352</ele>
        <time>2012-07-06T13:32:30.000Z</time>
      </trkpt>
      <trkpt lat="45.03589" lon="5.34196">
        <ele>357.20001220703</ele>
        <time>2012-07-06T13:32:35.000Z</time>
      </trkpt>
      <trkpt lat="45.03561" lon="5.34193">
        <ele>357.60000610352</ele>
        <time>2012-07-06T13:32:41.000Z</time>
      </trkpt>
      <trkpt lat="45.0353" lon="5.34179">
        <ele>357.60000610352</ele>
        <time>2012-07-06T13:32:47.000Z</time>
      </trkpt>
      <trkpt lat="45.03524" lon="5.34176">
        <ele>357.60000610352</ele>
        <time>2012-07-06T13:32:48.000Z</time>
      </trkpt>
      <trkpt lat="45.03506" lon="5.3417">
        <ele>358.20001220703</ele>
        <time>2012-07-06T13:32:51.000Z</time>
      </trkpt>
      <trkpt lat="45.03496" lon="5.34164">
        <ele>358.20001220703</ele>
        <time>2012-07-06T13:32:53.000Z</time>
      </trkpt>
      <trkpt lat="45.03478" lon="5.34161">
        <ele>359</ele>
        <time>2012-07-06T13:32:57.000Z</time>
      </trkpt>
      <trkpt lat="45.03464" lon="5.34159">
        <ele>360</ele>
        <time>2012-07-06T13:33:02.000Z</time>
      </trkpt>
      <trkpt lat="45.03455" lon="5.34163">
        <ele>361.39999389648</ele>
        <time>2012-07-06T13:33:06.000Z</time>
      </trkpt>
      <trkpt lat="45.03457" lon="5.34162">
        <ele>364.79998779297</ele>
        <time>2012-07-06T13:33:15.000Z</time>
      </trkpt>
      <trkpt lat="45.0345" lon="5.34167">
        <ele>369.60000610352</ele>
        <time>2012-07-06T13:33:29.000Z</time>
      </trkpt>
      <trkpt lat="45.03442" lon="5.3417">
        <ele>379.79998779297</ele>
        <time>2012-07-06T13:34:20.000Z</time>
      </trkpt>
      <trkpt lat="45.03443" lon="5.34176">
        <ele>370.60000610352</ele>
        <time>2012-07-06T13:34:34.000Z</time>
      </trkpt>
      <trkpt lat="45.03442" lon="5.34181">
        <ele>368.79998779297</ele>
        <time>2012-07-06T13:34:42.000Z</time>
      </trkpt>
      <trkpt lat="45.03444" lon="5.34184">
        <ele>376.79998779297</ele>
        <time>2012-07-06T13:34:57.000Z</time>
      </trkpt>
      <trkpt lat="45.03439" lon="5.34198">
        <ele>374</ele>
        <time>2012-07-06T13:35:06.000Z</time>
      </trkpt>
      <trkpt lat="45.03438" lon="5.3421">
        <ele>370.60000610352</ele>
        <time>2012-07-06T13:35:14.000Z</time>
      </trkpt>
      <trkpt lat="45.03435" lon="5.3422">
        <ele>369.60000610352</ele>
        <time>2012-07-06T13:35:21.000Z</time>
      </trkpt>
      <trkpt lat="45.03431" lon="5.34227">
        <ele>374</ele>
        <time>2012-07-06T13:35:28.000Z</time>
      </trkpt>
      <trkpt lat="45.0343" lon="5.34231">
        <ele>376.79998779297</ele>
        <time>2012-07-06T13:35:34.000Z</time>
      </trkpt>
      <trkpt lat="45.0343" lon="5.34234">
        <ele>378.39999389648</ele>
        <time>2012-07-06T13:35:45.000Z</time>
      </trkpt>
      <trkpt lat="45.03425" lon="5.34246">
        <ele>381.60000610352</ele>
        <time>2012-07-06T13:36:06.000Z</time>
      </trkpt>
      <trkpt lat="45.03427" lon="5.34253">
        <ele>380.20001220703</ele>
        <time>2012-07-06T13:36:18.000Z</time>
      </trkpt>
      <trkpt lat="45.03424" lon="5.34252">
        <ele>392.20001220703</ele>
        <time>2012-07-06T13:36:50.000Z</time>
      </trkpt>
      <trkpt lat="45.0342" lon="5.34255">
        <ele>390.79998779297</ele>
        <time>2012-07-06T13:36:55.000Z</time>
      </trkpt>
      <trkpt lat="45.03418" lon="5.34256">
        <ele>389.79998779297</ele>
        <time>2012-07-06T13:37:02.000Z</time>
      </trkpt>
      <trkpt lat="45.03416" lon="5.34258">
        <ele>388.79998779297</ele>
        <time>2012-07-06T13:37:11.000Z</time>
      </trkpt>
      <trkpt lat="45.03413" lon="5.34259">
        <ele>389.39999389648</ele>
        <time>2012-07-06T13:37:16.000Z</time>
      </trkpt>
      <trkpt lat="45.03402" lon="5.34262">
        <ele>397.60000610352</ele>
        <time>2012-07-06T13:37:42.000Z</time>
      </trkpt>
      <trkpt lat="45.03398" lon="5.34263">
        <ele>396.60000610352</ele>
        <time>2012-07-06T13:37:45.000Z</time>
      </trkpt>
      <trkpt lat="45.0339" lon="5.34257">
        <ele>395.20001220703</ele>
        <time>2012-07-06T13:37:51.000Z</time>
      </trkpt>
      <trkpt lat="45.03378" lon="5.34245">
        <ele>392.20001220703</ele>
        <time>2012-07-06T13:37:56.000Z</time>
      </trkpt>
      <trkpt lat="45.03357" lon="5.34226">
        <ele>389.39999389648</ele>
        <time>2012-07-06T13:38:02.000Z</time>
      </trkpt>
      <trkpt lat="45.03337" lon="5.34197">
        <ele>387</ele>
        <time>2012-07-06T13:38:07.000Z</time>
      </trkpt>
      <trkpt lat="45.03326" lon="5.34182">
        <ele>386</ele>
        <time>2012-07-06T13:38:10.000Z</time>
      </trkpt>
      <trkpt lat="45.03315" lon="5.34158">
        <ele>383.60000610352</ele>
        <time>2012-07-06T13:38:14.000Z</time>
      </trkpt>
      <trkpt lat="45.03296" lon="5.34102">
        <ele>378.79998779297</ele>
        <time>2012-07-06T13:38:19.000Z</time>
      </trkpt>
      <trkpt lat="45.03287" lon="5.34078">
        <ele>376.39999389648</ele>
        <time>2012-07-06T13:38:21.000Z</time>
      </trkpt>
      <trkpt lat="45.03269" lon="5.34051">
        <ele>374.39999389648</ele>
        <time>2012-07-06T13:38:25.000Z</time>
      </trkpt>
      <trkpt lat="45.03263" lon="5.34048">
        <ele>374</ele>
        <time>2012-07-06T13:38:28.000Z</time>
      </trkpt>
      <trkpt lat="45.03246" lon="5.34042">
        <ele>376</ele>
        <time>2012-07-06T13:38:35.000Z</time>
      </trkpt>
      <trkpt lat="45.03231" lon="5.34034">
        <ele>379.20001220703</ele>
        <time>2012-07-06T13:38:42.000Z</time>
      </trkpt>
      <trkpt lat="45.03222" lon="5.34027">
        <ele>383.60000610352</ele>
        <time>2012-07-06T13:38:48.000Z</time>
      </trkpt>
      <trkpt lat="45.03208" lon="5.34017">
        <ele>387.39999389648</ele>
        <time>2012-07-06T13:38:55.000Z</time>
      </trkpt>
      <trkpt lat="45.03196" lon="5.34007">
        <ele>389.79998779297</ele>
        <time>2012-07-06T13:39:01.000Z</time>
      </trkpt>
      <trkpt lat="45.03189" lon="5.33999">
        <ele>391.79998779297</ele>
        <time>2012-07-06T13:39:06.000Z</time>
      </trkpt>
      <trkpt lat="45.03182" lon="5.33994">
        <ele>392.79998779297</ele>
        <time>2012-07-06T13:39:09.000Z</time>
      </trkpt>
      <trkpt lat="45.03171" lon="5.33987">
        <ele>395.60000610352</ele>
        <time>2012-07-06T13:39:15.000Z</time>
      </trkpt>
      <trkpt lat="45.03156" lon="5.33977">
        <ele>398</ele>
        <time>2012-07-06T13:39:23.000Z</time>
      </trkpt>
      <trkpt lat="45.03144" lon="5.33969">
        <ele>401.39999389648</ele>
        <time>2012-07-06T13:39:30.000Z</time>
      </trkpt>
      <trkpt lat="45.03132" lon="5.33958">
        <ele>400</ele>
        <time>2012-07-06T13:39:35.000Z</time>
      </trkpt>
      <trkpt lat="45.03119" lon="5.33948">
        <ele>400.39999389648</ele>
        <time>2012-07-06T13:39:39.000Z</time>
      </trkpt>
      <trkpt lat="45.03104" lon="5.33936">
        <ele>399</ele>
        <time>2012-07-06T13:39:43.000Z</time>
      </trkpt>
      <trkpt lat="45.03093" lon="5.33926">
        <ele>399.39999389648</ele>
        <time>2012-07-06T13:39:46.000Z</time>
      </trkpt>
      <trkpt lat="45.03078" lon="5.33913">
        <ele>401.39999389648</ele>
        <time>2012-07-06T13:39:52.000Z</time>
      </trkpt>
      <trkpt lat="45.03072" lon="5.33908">
        <ele>403.39999389648</ele>
        <time>2012-07-06T13:39:57.000Z</time>
      </trkpt>
      <trkpt lat="45.03067" lon="5.33906">
        <ele>405.20001220703</ele>
        <time>2012-07-06T13:40:01.000Z</time>
      </trkpt>
      <trkpt lat="45.03062" lon="5.33901">
        <ele>408.60000610352</ele>
        <time>2012-07-06T13:40:06.000Z</time>
      </trkpt>
      <trkpt lat="45.03053" lon="5.33892">
        <ele>410</ele>
        <time>2012-07-06T13:40:11.000Z</time>
      </trkpt>
      <trkpt lat="45.03042" lon="5.33877">
        <ele>411.39999389648</ele>
        <time>2012-07-06T13:40:16.000Z</time>
      </trkpt>
      <trkpt lat="45.03029" lon="5.33872">
        <ele>411.39999389648</ele>
        <time>2012-07-06T13:40:20.000Z</time>
      </trkpt>
      <trkpt lat="45.03016" lon="5.3387">
        <ele>411.39999389648</ele>
        <time>2012-07-06T13:40:25.000Z</time>
      </trkpt>
      <trkpt lat="45.03002" lon="5.33862">
        <ele>410.60000610352</ele>
        <time>2012-07-06T13:40:30.000Z</time>
      </trkpt>
      <trkpt lat="45.02986" lon="5.33849">
        <ele>411</ele>
        <time>2012-07-06T13:40:35.000Z</time>
      </trkpt>
      <trkpt lat="45.02967" lon="5.33832">
        <ele>409.60000610352</ele>
        <time>2012-07-06T13:40:40.000Z</time>
      </trkpt>
      <trkpt lat="45.02953" lon="5.33821">
        <ele>408.60000610352</ele>
        <time>2012-07-06T13:40:43.000Z</time>
      </trkpt>
      <trkpt lat="45.02935" lon="5.3381">
        <ele>409</ele>
        <time>2012-07-06T13:40:47.000Z</time>
      </trkpt>
      <trkpt lat="45.02919" lon="5.33798">
        <ele>408.60000610352</ele>
        <time>2012-07-06T13:40:50.000Z</time>
      </trkpt>
      <trkpt lat="45.02889" lon="5.3376">
        <ele>407.20001220703</ele>
        <time>2012-07-06T13:40:55.000Z</time>
      </trkpt>
      <trkpt lat="45.02885" lon="5.33752">
        <ele>407.20001220703</ele>
        <time>2012-07-06T13:40:56.000Z</time>
      </trkpt>
      <trkpt lat="45.02868" lon="5.33735">
        <ele>405.79998779297</ele>
        <time>2012-07-06T13:41:00.000Z</time>
      </trkpt>
      <trkpt lat="45.02863" lon="5.33745">
        <ele>403.79998779297</ele>
        <time>2012-07-06T13:41:05.000Z</time>
      </trkpt>
      <trkpt lat="45.02859" lon="5.33747">
        <ele>402.39999389648</ele>
        <time>2012-07-06T13:41:12.000Z</time>
      </trkpt>
      <trkpt lat="45.02846" lon="5.33744">
        <ele>402.79998779297</ele>
        <time>2012-07-06T13:41:19.000Z</time>
      </trkpt>
      <trkpt lat="45.02833" lon="5.3374">
        <ele>402.39999389648</ele>
        <time>2012-07-06T13:41:24.000Z</time>
      </trkpt>
      <trkpt lat="45.02822" lon="5.3374">
        <ele>403.79998779297</ele>
        <time>2012-07-06T13:41:29.000Z</time>
      </trkpt>
      <trkpt lat="45.02821" lon="5.33739">
        <ele>404.20001220703</ele>
        <time>2012-07-06T13:41:30.000Z</time>
      </trkpt>
      <trkpt lat="45.02818" lon="5.33738">
        <ele>404.79998779297</ele>
        <time>2012-07-06T13:41:32.000Z</time>
      </trkpt>
      <trkpt lat="45.02801" lon="5.33731">
        <ele>405.20001220703</ele>
        <time>2012-07-06T13:41:38.000Z</time>
      </trkpt>
      <trkpt lat="45.02787" lon="5.33725">
        <ele>406.60000610352</ele>
        <time>2012-07-06T13:41:43.000Z</time>
      </trkpt>
      <trkpt lat="45.02772" lon="5.33721">
        <ele>407.60000610352</ele>
        <time>2012-07-06T13:41:48.000Z</time>
      </trkpt>
      <trkpt lat="45.02763" lon="5.3372">
        <ele>410.60000610352</ele>
        <time>2012-07-06T13:41:51.000Z</time>
      </trkpt>
      <trkpt lat="45.02749" lon="5.33712">
        <ele>413.39999389648</ele>
        <time>2012-07-06T13:41:55.000Z</time>
      </trkpt>
      <trkpt lat="45.02719" lon="5.33697">
        <ele>413.79998779297</ele>
        <time>2012-07-06T13:42:01.000Z</time>
      </trkpt>
      <trkpt lat="45.02714" lon="5.33695">
        <ele>413.79998779297</ele>
        <time>2012-07-06T13:42:02.000Z</time>
      </trkpt>
      <trkpt lat="45.02703" lon="5.3369">
        <ele>413.79998779297</ele>
        <time>2012-07-06T13:42:04.000Z</time>
      </trkpt>
      <trkpt lat="45.02678" lon="5.3368">
        <ele>413.79998779297</ele>
        <time>2012-07-06T13:42:09.000Z</time>
      </trkpt>
      <trkpt lat="45.02654" lon="5.33667">
        <ele>413.79998779297</ele>
        <time>2012-07-06T13:42:14.000Z</time>
      </trkpt>
      <trkpt lat="45.02639" lon="5.33658">
        <ele>414.79998779297</ele>
        <time>2012-07-06T13:42:17.000Z</time>
      </trkpt>
      <trkpt lat="45.02615" lon="5.33646">
        <ele>415.79998779297</ele>
        <time>2012-07-06T13:42:22.000Z</time>
      </trkpt>
      <trkpt lat="45.0261" lon="5.33643">
        <ele>415.39999389648</ele>
        <time>2012-07-06T13:42:23.000Z</time>
      </trkpt>
      <trkpt lat="45.02596" lon="5.33632">
        <ele>416.20001220703</ele>
        <time>2012-07-06T13:42:26.000Z</time>
      </trkpt>
      <trkpt lat="45.02577" lon="5.33609">
        <ele>414.79998779297</ele>
        <time>2012-07-06T13:42:30.000Z</time>
      </trkpt>
      <trkpt lat="45.02561" lon="5.33579">
        <ele>412.39999389648</ele>
        <time>2012-07-06T13:42:34.000Z</time>
      </trkpt>
      <trkpt lat="45.02547" lon="5.33552">
        <ele>410</ele>
        <time>2012-07-06T13:42:38.000Z</time>
      </trkpt>
      <trkpt lat="45.02529" lon="5.3352">
        <ele>407.20001220703</ele>
        <time>2012-07-06T13:42:42.000Z</time>
      </trkpt>
      <trkpt lat="45.02493" lon="5.33486">
        <ele>401.39999389648</ele>
        <time>2012-07-06T13:42:47.000Z</time>
      </trkpt>
      <trkpt lat="45.02458" lon="5.33439">
        <ele>395.60000610352</ele>
        <time>2012-07-06T13:42:52.000Z</time>
      </trkpt>
      <trkpt lat="45.02412" lon="5.33368">
        <ele>388</ele>
        <time>2012-07-06T13:43:00.000Z</time>
      </trkpt>
      <trkpt lat="45.02399" lon="5.33351">
        <ele>386</ele>
        <time>2012-07-06T13:43:02.000Z</time>
      </trkpt>
      <trkpt lat="45.02383" lon="5.33302">
        <ele>384</ele>
        <time>2012-07-06T13:43:06.000Z</time>
      </trkpt>
      <trkpt lat="45.02377" lon="5.33273">
        <ele>382.20001220703</ele>
        <time>2012-07-06T13:43:08.000Z</time>
      </trkpt>
      <trkpt lat="45.02379" lon="5.33215">
        <ele>376.79998779297</ele>
        <time>2012-07-06T13:43:12.000Z</time>
      </trkpt>
      <trkpt lat="45.02381" lon="5.33201">
        <ele>376.39999389648</ele>
        <time>2012-07-06T13:43:13.000Z</time>
      </trkpt>
      <trkpt lat="45.0238" lon="5.33155">
        <ele>372</ele>
        <time>2012-07-06T13:43:17.000Z</time>
      </trkpt>
      <trkpt lat="45.02368" lon="5.33096">
        <ele>368.79998779297</ele>
        <time>2012-07-06T13:43:22.000Z</time>
      </trkpt>
      <trkpt lat="45.02347" lon="5.33051">
        <ele>367.20001220703</ele>
        <time>2012-07-06T13:43:26.000Z</time>
      </trkpt>
      <trkpt lat="45.02298" lon="5.32993">
        <ele>366.79998779297</ele>
        <time>2012-07-06T13:43:33.000Z</time>
      </trkpt>
      <trkpt lat="45.02252" lon="5.32948">
        <ele>364.79998779297</ele>
        <time>2012-07-06T13:43:39.000Z</time>
      </trkpt>
      <trkpt lat="45.02206" lon="5.32895">
        <ele>360.60000610352</ele>
        <time>2012-07-06T13:43:45.000Z</time>
      </trkpt>
      <trkpt lat="45.02155" lon="5.32841">
        <ele>355.79998779297</ele>
        <time>2012-07-06T13:43:51.000Z</time>
      </trkpt>
      <trkpt lat="45.02147" lon="5.32832">
        <ele>354.79998779297</ele>
        <time>2012-07-06T13:43:52.000Z</time>
      </trkpt>
      <trkpt lat="45.0213" lon="5.32798">
        <ele>351.79998779297</ele>
        <time>2012-07-06T13:43:56.000Z</time>
      </trkpt>
      <trkpt lat="45.02111" lon="5.32756">
        <ele>350</ele>
        <time>2012-07-06T13:44:00.000Z</time>
      </trkpt>
      <trkpt lat="45.02101" lon="5.32735">
        <ele>349.39999389648</ele>
        <time>2012-07-06T13:44:02.000Z</time>
      </trkpt>
      <trkpt lat="45.02077" lon="5.32713">
        <ele>348</ele>
        <time>2012-07-06T13:44:06.000Z</time>
      </trkpt>
      <trkpt lat="45.02055" lon="5.32702">
        <ele>347</ele>
        <time>2012-07-06T13:44:09.000Z</time>
      </trkpt>
      <trkpt lat="45.02026" lon="5.32697">
        <ele>344.60000610352</ele>
        <time>2012-07-06T13:44:13.000Z</time>
      </trkpt>
      <trkpt lat="45.0201" lon="5.32703">
        <ele>342.20001220703</ele>
        <time>2012-07-06T13:44:18.000Z</time>
      </trkpt>
      <trkpt lat="45.01991" lon="5.32724">
        <ele>340.39999389648</ele>
        <time>2012-07-06T13:44:24.000Z</time>
      </trkpt>
      <trkpt lat="45.01976" lon="5.32745">
        <ele>341.79998779297</ele>
        <time>2012-07-06T13:44:29.000Z</time>
      </trkpt>
      <trkpt lat="45.01959" lon="5.32759">
        <ele>342.79998779297</ele>
        <time>2012-07-06T13:44:34.000Z</time>
      </trkpt>
      <trkpt lat="45.01946" lon="5.32768">
        <ele>345.20001220703</ele>
        <time>2012-07-06T13:44:40.000Z</time>
      </trkpt>
      <trkpt lat="45.01936" lon="5.32774">
        <ele>347.60000610352</ele>
        <time>2012-07-06T13:44:45.000Z</time>
      </trkpt>
      <trkpt lat="45.01922" lon="5.32784">
        <ele>349.39999389648</ele>
        <time>2012-07-06T13:44:52.000Z</time>
      </trkpt>
      <trkpt lat="45.01911" lon="5.32785">
        <ele>351.79998779297</ele>
        <time>2012-07-06T13:44:57.000Z</time>
      </trkpt>
      <trkpt lat="45.01895" lon="5.32789">
        <ele>354.20001220703</ele>
        <time>2012-07-06T13:45:03.000Z</time>
      </trkpt>
      <trkpt lat="45.01878" lon="5.32795">
        <ele>355.79998779297</ele>
        <time>2012-07-06T13:45:09.000Z</time>
      </trkpt>
      <trkpt lat="45.01861" lon="5.32802">
        <ele>353.39999389648</ele>
        <time>2012-07-06T13:45:15.000Z</time>
      </trkpt>
      <trkpt lat="45.01842" lon="5.32813">
        <ele>353.79998779297</ele>
        <time>2012-07-06T13:45:20.000Z</time>
      </trkpt>
      <trkpt lat="45.01824" lon="5.32826">
        <ele>354.20001220703</ele>
        <time>2012-07-06T13:45:26.000Z</time>
      </trkpt>
      <trkpt lat="45.01809" lon="5.32836">
        <ele>354.79998779297</ele>
        <time>2012-07-06T13:45:31.000Z</time>
      </trkpt>
      <trkpt lat="45.01791" lon="5.32842">
        <ele>356.20001220703</ele>
        <time>2012-07-06T13:45:36.000Z</time>
      </trkpt>
      <trkpt lat="45.01778" lon="5.3285">
        <ele>351.39999389648</ele>
        <time>2012-07-06T13:45:41.000Z</time>
      </trkpt>
      <trkpt lat="45.01764" lon="5.3286">
        <ele>356.60000610352</ele>
        <time>2012-07-06T13:45:46.000Z</time>
      </trkpt>
      <trkpt lat="45.01752" lon="5.32867">
        <ele>359.60000610352</ele>
        <time>2012-07-06T13:45:51.000Z</time>
      </trkpt>
      <trkpt lat="45.01736" lon="5.32876">
        <ele>362</ele>
        <time>2012-07-06T13:45:55.000Z</time>
      </trkpt>
      <trkpt lat="45.01716" lon="5.32884">
        <ele>362.39999389648</ele>
        <time>2012-07-06T13:46:00.000Z</time>
      </trkpt>
      <trkpt lat="45.01703" lon="5.32895">
        <ele>363</ele>
        <time>2012-07-06T13:46:04.000Z</time>
      </trkpt>
      <trkpt lat="45.01701" lon="5.32898">
        <ele>363</ele>
        <time>2012-07-06T13:46:05.000Z</time>
      </trkpt>
      <trkpt lat="45.01693" lon="5.32908">
        <ele>363</ele>
        <time>2012-07-06T13:46:12.000Z</time>
      </trkpt>
      <trkpt lat="45.01684" lon="5.32915">
        <ele>364.39999389648</ele>
        <time>2012-07-06T13:46:19.000Z</time>
      </trkpt>
      <trkpt lat="45.01672" lon="5.32919">
        <ele>365.79998779297</ele>
        <time>2012-07-06T13:46:27.000Z</time>
      </trkpt>
      <trkpt lat="45.01668" lon="5.3292">
        <ele>366.79998779297</ele>
        <time>2012-07-06T13:46:30.000Z</time>
      </trkpt>
      <trkpt lat="45.0166" lon="5.32933">
        <ele>366.79998779297</ele>
        <time>2012-07-06T13:46:37.000Z</time>
      </trkpt>
      <trkpt lat="45.01648" lon="5.32947">
        <ele>367.79998779297</ele>
        <time>2012-07-06T13:46:43.000Z</time>
      </trkpt>
      <trkpt lat="45.01645" lon="5.32951">
        <ele>367.79998779297</ele>
        <time>2012-07-06T13:46:45.000Z</time>
      </trkpt>
      <trkpt lat="45.0163" lon="5.32965">
        <ele>369.20001220703</ele>
        <time>2012-07-06T13:46:52.000Z</time>
      </trkpt>
      <trkpt lat="45.01617" lon="5.32975">
        <ele>369.20001220703</ele>
        <time>2012-07-06T13:46:57.000Z</time>
      </trkpt>
      <trkpt lat="45.01599" lon="5.32989">
        <ele>370.60000610352</ele>
        <time>2012-07-06T13:47:02.000Z</time>
      </trkpt>
      <trkpt lat="45.01584" lon="5.33006">
        <ele>375.39999389648</ele>
        <time>2012-07-06T13:47:06.000Z</time>
      </trkpt>
      <trkpt lat="45.01582" lon="5.33009">
        <ele>375</ele>
        <time>2012-07-06T13:47:07.000Z</time>
      </trkpt>
      <trkpt lat="45.01571" lon="5.33033">
        <ele>375</ele>
        <time>2012-07-06T13:47:13.000Z</time>
      </trkpt>
      <trkpt lat="45.01569" lon="5.3304">
        <ele>374.39999389648</ele>
        <time>2012-07-06T13:47:15.000Z</time>
      </trkpt>
      <trkpt lat="45.01565" lon="5.33058">
        <ele>376</ele>
        <time>2012-07-06T13:47:19.000Z</time>
      </trkpt>
      <trkpt lat="45.0157" lon="5.33069">
        <ele>378.39999389648</ele>
        <time>2012-07-06T13:47:25.000Z</time>
      </trkpt>
      <trkpt lat="45.01573" lon="5.33073">
        <ele>380.20001220703</ele>
        <time>2012-07-06T13:47:28.000Z</time>
      </trkpt>
      <trkpt lat="45.01581" lon="5.33073">
        <ele>381.20001220703</ele>
        <time>2012-07-06T13:47:34.000Z</time>
      </trkpt>
      <trkpt lat="45.01582" lon="5.33072">
        <ele>381.20001220703</ele>
        <time>2012-07-06T13:47:35.000Z</time>
      </trkpt>
      <trkpt lat="45.01588" lon="5.33063">
        <ele>380.79998779297</ele>
        <time>2012-07-06T13:47:40.000Z</time>
      </trkpt>
      <trkpt lat="45.01595" lon="5.3305">
        <ele>382.20001220703</ele>
        <time>2012-07-06T13:47:48.000Z</time>
      </trkpt>
      <trkpt lat="45.01599" lon="5.33043">
        <ele>383.60000610352</ele>
        <time>2012-07-06T13:47:53.000Z</time>
      </trkpt>
      <trkpt lat="45.016" lon="5.33042">
        <ele>384</ele>
        <time>2012-07-06T13:47:54.000Z</time>
      </trkpt>
      <trkpt lat="45.01604" lon="5.33044">
        <ele>385.60000610352</ele>
        <time>2012-07-06T13:47:59.000Z</time>
      </trkpt>
      <trkpt lat="45.01604" lon="5.33051">
        <ele>386.39999389648</ele>
        <time>2012-07-06T13:48:04.000Z</time>
      </trkpt>
      <trkpt lat="45.01603" lon="5.33061">
        <ele>386.39999389648</ele>
        <time>2012-07-06T13:48:08.000Z</time>
      </trkpt>
      <trkpt lat="45.01602" lon="5.33067">
        <ele>386.39999389648</ele>
        <time>2012-07-06T13:48:13.000Z</time>
      </trkpt>
      <trkpt lat="45.01602" lon="5.33068">
        <ele>388.79998779297</ele>
        <time>2012-07-06T13:48:19.000Z</time>
      </trkpt>
      <trkpt lat="45.01603" lon="5.33068">
        <ele>388.79998779297</ele>
        <time>2012-07-06T13:48:30.000Z</time>
      </trkpt>
      <trkpt lat="45.01606" lon="5.33053">
        <ele>385.60000610352</ele>
        <time>2012-07-06T13:48:36.000Z</time>
      </trkpt>
      <trkpt lat="45.01606" lon="5.33048">
        <ele>384.60000610352</ele>
        <time>2012-07-06T13:48:38.000Z</time>
      </trkpt>
      <trkpt lat="45.016" lon="5.3305">
        <ele>384</ele>
        <time>2012-07-06T13:48:45.000Z</time>
      </trkpt>
      <trkpt lat="45.01593" lon="5.33062">
        <ele>383.20001220703</ele>
        <time>2012-07-06T13:48:48.000Z</time>
      </trkpt>
      <trkpt lat="45.01579" lon="5.33075">
        <ele>382.60000610352</ele>
        <time>2012-07-06T13:48:51.000Z</time>
      </trkpt>
      <trkpt lat="45.01566" lon="5.33061">
        <ele>381.20001220703</ele>
        <time>2012-07-06T13:48:54.000Z</time>
      </trkpt>
      <trkpt lat="45.01567" lon="5.33043">
        <ele>375</ele>
        <time>2012-07-06T13:48:57.000Z</time>
      </trkpt>
      <trkpt lat="45.01581" lon="5.33021">
        <ele>371.60000610352</ele>
        <time>2012-07-06T13:49:01.000Z</time>
      </trkpt>
      <trkpt lat="45.01619" lon="5.32985">
        <ele>367.79998779297</ele>
        <time>2012-07-06T13:49:08.000Z</time>
      </trkpt>
      <trkpt lat="45.01635" lon="5.32969">
        <ele>366.20001220703</ele>
        <time>2012-07-06T13:49:11.000Z</time>
      </trkpt>
      <trkpt lat="45.01646" lon="5.32958">
        <ele>363</ele>
        <time>2012-07-06T13:49:13.000Z</time>
      </trkpt>
      <trkpt lat="45.01662" lon="5.32936">
        <ele>361.39999389648</ele>
        <time>2012-07-06T13:49:16.000Z</time>
      </trkpt>
      <trkpt lat="45.01683" lon="5.3292">
        <ele>358.60000610352</ele>
        <time>2012-07-06T13:49:21.000Z</time>
      </trkpt>
      <trkpt lat="45.01702" lon="5.329">
        <ele>350.39999389648</ele>
        <time>2012-07-06T13:49:27.000Z</time>
      </trkpt>
      <trkpt lat="45.01708" lon="5.32895">
        <ele>348.60000610352</ele>
        <time>2012-07-06T13:49:28.000Z</time>
      </trkpt>
      <trkpt lat="45.0173" lon="5.32885">
        <ele>345.20001220703</ele>
        <time>2012-07-06T13:49:32.000Z</time>
      </trkpt>
      <trkpt lat="45.01751" lon="5.32876">
        <ele>343.20001220703</ele>
        <time>2012-07-06T13:49:35.000Z</time>
      </trkpt>
      <trkpt lat="45.01763" lon="5.32868">
        <ele>341.79998779297</ele>
        <time>2012-07-06T13:49:37.000Z</time>
      </trkpt>
      <trkpt lat="45.01799" lon="5.32847">
        <ele>339</ele>
        <time>2012-07-06T13:49:42.000Z</time>
      </trkpt>
      <trkpt lat="45.01818" lon="5.32838">
        <ele>339</ele>
        <time>2012-07-06T13:49:45.000Z</time>
      </trkpt>
      <trkpt lat="45.01843" lon="5.32821">
        <ele>337</ele>
        <time>2012-07-06T13:49:49.000Z</time>
      </trkpt>
      <trkpt lat="45.01857" lon="5.32813">
        <ele>336.39999389648</ele>
        <time>2012-07-06T13:49:51.000Z</time>
      </trkpt>
      <trkpt lat="45.01892" lon="5.32799">
        <ele>336</ele>
        <time>2012-07-06T13:49:56.000Z</time>
      </trkpt>
      <trkpt lat="45.01899" lon="5.32797">
        <ele>335</ele>
        <time>2012-07-06T13:49:57.000Z</time>
      </trkpt>
      <trkpt lat="45.01926" lon="5.32792">
        <ele>337.39999389648</ele>
        <time>2012-07-06T13:50:01.000Z</time>
      </trkpt>
      <trkpt lat="45.01962" lon="5.32768">
        <ele>334.60000610352</ele>
        <time>2012-07-06T13:50:06.000Z</time>
      </trkpt>
      <trkpt lat="45.01983" lon="5.3275">
        <ele>334.60000610352</ele>
        <time>2012-07-06T13:50:08.000Z</time>
      </trkpt>
      <trkpt lat="45.02001" lon="5.32717">
        <ele>335</ele>
        <time>2012-07-06T13:50:11.000Z</time>
      </trkpt>
      <trkpt lat="45.02016" lon="5.32698">
        <ele>338.39999389648</ele>
        <time>2012-07-06T13:50:14.000Z</time>
      </trkpt>
      <trkpt lat="45.02025" lon="5.32672">
        <ele>337.39999389648</ele>
        <time>2012-07-06T13:50:18.000Z</time>
      </trkpt>
      <trkpt lat="45.02048" lon="5.32658">
        <ele>336</ele>
        <time>2012-07-06T13:50:22.000Z</time>
      </trkpt>
      <trkpt lat="45.02097" lon="5.32656">
        <ele>332.20001220703</ele>
        <time>2012-07-06T13:50:28.000Z</time>
      </trkpt>
      <trkpt lat="45.02139" lon="5.32659">
        <ele>330.20001220703</ele>
        <time>2012-07-06T13:50:33.000Z</time>
      </trkpt>
      <trkpt lat="45.02188" lon="5.32668">
        <ele>329.20001220703</ele>
        <time>2012-07-06T13:50:40.000Z</time>
      </trkpt>
      <trkpt lat="45.02219" lon="5.32672">
        <ele>328.79998779297</ele>
        <time>2012-07-06T13:50:45.000Z</time>
      </trkpt>
      <trkpt lat="45.02225" lon="5.32672">
        <ele>327.79998779297</ele>
        <time>2012-07-06T13:50:46.000Z</time>
      </trkpt>
      <trkpt lat="45.02242" lon="5.32673">
        <ele>331.20001220703</ele>
        <time>2012-07-06T13:50:51.000Z</time>
      </trkpt>
      <trkpt lat="45.02243" lon="5.32657">
        <ele>332.20001220703</ele>
        <time>2012-07-06T13:50:54.000Z</time>
      </trkpt>
      <trkpt lat="45.0224" lon="5.32605">
        <ele>331.20001220703</ele>
        <time>2012-07-06T13:51:00.000Z</time>
      </trkpt>
      <trkpt lat="45.02239" lon="5.32586">
        <ele>330.79998779297</ele>
        <time>2012-07-06T13:51:02.000Z</time>
      </trkpt>
      <trkpt lat="45.02248" lon="5.32553">
        <ele>328.39999389648</ele>
        <time>2012-07-06T13:51:06.000Z</time>
      </trkpt>
      <trkpt lat="45.0226" lon="5.32547">
        <ele>327.39999389648</ele>
        <time>2012-07-06T13:51:08.000Z</time>
      </trkpt>
      <trkpt lat="45.02275" lon="5.32543">
        <ele>326</ele>
        <time>2012-07-06T13:51:11.000Z</time>
      </trkpt>
      <trkpt lat="45.02278" lon="5.32541">
        <ele>325</ele>
        <time>2012-07-06T13:51:14.000Z</time>
      </trkpt>
      <trkpt lat="45.02277" lon="5.32545">
        <ele>325.39999389648</ele>
        <time>2012-07-06T13:51:18.000Z</time>
      </trkpt>
      <trkpt lat="45.02268" lon="5.32543">
        <ele>324.39999389648</ele>
        <time>2012-07-06T13:51:22.000Z</time>
      </trkpt>
      <trkpt lat="45.02271" lon="5.32538">
        <ele>322.60000610352</ele>
        <time>2012-07-06T13:51:24.000Z</time>
      </trkpt>
      <trkpt lat="45.02287" lon="5.3251">
        <ele>318.79998779297</ele>
        <time>2012-07-06T13:51:29.000Z</time>
      </trkpt>
      <trkpt lat="45.02299" lon="5.32487">
        <ele>312.39999389648</ele>
        <time>2012-07-06T13:51:34.000Z</time>
      </trkpt>
      <trkpt lat="45.02314" lon="5.32451">
        <ele>303.79998779297</ele>
        <time>2012-07-06T13:51:40.000Z</time>
      </trkpt>
      <trkpt lat="45.02318" lon="5.32443">
        <ele>302.39999389648</ele>
        <time>2012-07-06T13:51:41.000Z</time>
      </trkpt>
      <trkpt lat="45.02338" lon="5.32415">
        <ele>295.20001220703</ele>
        <time>2012-07-06T13:51:46.000Z</time>
      </trkpt>
      <trkpt lat="45.02341" lon="5.32383">
        <ele>288.39999389648</ele>
        <time>2012-07-06T13:51:50.000Z</time>
      </trkpt>
      <trkpt lat="45.02337" lon="5.32368">
        <ele>285</ele>
        <time>2012-07-06T13:51:53.000Z</time>
      </trkpt>
      <trkpt lat="45.02338" lon="5.32362">
        <ele>284.60000610352</ele>
        <time>2012-07-06T13:51:54.000Z</time>
      </trkpt>
      <trkpt lat="45.02337" lon="5.32322">
        <ele>281.79998779297</ele>
        <time>2012-07-06T13:51:59.000Z</time>
      </trkpt>
      <trkpt lat="45.02336" lon="5.32313">
        <ele>281.20001220703</ele>
        <time>2012-07-06T13:52:00.000Z</time>
      </trkpt>
      <trkpt lat="45.02321" lon="5.32281">
        <ele>281.20001220703</ele>
        <time>2012-07-06T13:52:04.000Z</time>
      </trkpt>
      <trkpt lat="45.02283" lon="5.32242">
        <ele>282.60000610352</ele>
        <time>2012-07-06T13:52:11.000Z</time>
      </trkpt>
      <trkpt lat="45.02264" lon="5.32221">
        <ele>282.60000610352</ele>
        <time>2012-07-06T13:52:15.000Z</time>
      </trkpt>
      <trkpt lat="45.02238" lon="5.32206">
        <ele>280.79998779297</ele>
        <time>2012-07-06T13:52:19.000Z</time>
      </trkpt>
      <trkpt lat="45.02221" lon="5.32194">
        <ele>278.79998779297</ele>
        <time>2012-07-06T13:52:23.000Z</time>
      </trkpt>
      <trkpt lat="45.02222" lon="5.32172">
        <ele>276.79998779297</ele>
        <time>2012-07-06T13:52:27.000Z</time>
      </trkpt>
      <trkpt lat="45.02225" lon="5.32167">
        <ele>276.39999389648</ele>
        <time>2012-07-06T13:52:28.000Z</time>
      </trkpt>
      <trkpt lat="45.02249" lon="5.32131">
        <ele>274.39999389648</ele>
        <time>2012-07-06T13:52:34.000Z</time>
      </trkpt>
      <trkpt lat="45.02254" lon="5.32124">
        <ele>274</ele>
        <time>2012-07-06T13:52:35.000Z</time>
      </trkpt>
      <trkpt lat="45.02279" lon="5.32094">
        <ele>271.20001220703</ele>
        <time>2012-07-06T13:52:40.000Z</time>
      </trkpt>
      <trkpt lat="45.0228" lon="5.3209">
        <ele>270.60000610352</ele>
        <time>2012-07-06T13:52:41.000Z</time>
      </trkpt>
      <trkpt lat="45.02268" lon="5.32093">
        <ele>268.20001220703</ele>
        <time>2012-07-06T13:52:44.000Z</time>
      </trkpt>
      <trkpt lat="45.02251" lon="5.32103">
        <ele>265.79998779297</ele>
        <time>2012-07-06T13:52:47.000Z</time>
      </trkpt>
      <trkpt lat="45.02239" lon="5.32113">
        <ele>264</ele>
        <time>2012-07-06T13:52:49.000Z</time>
      </trkpt>
      <trkpt lat="45.0221" lon="5.32139">
        <ele>260</ele>
        <time>2012-07-06T13:52:53.000Z</time>
      </trkpt>
      <trkpt lat="45.0219" lon="5.32153">
        <ele>258.60000610352</ele>
        <time>2012-07-06T13:52:55.000Z</time>
      </trkpt>
      <trkpt lat="45.02141" lon="5.3217">
        <ele>254.80000305176</ele>
        <time>2012-07-06T13:53:00.000Z</time>
      </trkpt>
      <trkpt lat="45.02133" lon="5.32173">
        <ele>253.80000305176</ele>
        <time>2012-07-06T13:53:01.000Z</time>
      </trkpt>
      <trkpt lat="45.02099" lon="5.32202">
        <ele>251.39999389648</ele>
        <time>2012-07-06T13:53:06.000Z</time>
      </trkpt>
      <trkpt lat="45.02093" lon="5.3221">
        <ele>251</ele>
        <time>2012-07-06T13:53:07.000Z</time>
      </trkpt>
      <trkpt lat="45.02069" lon="5.32231">
        <ele>249.39999389648</ele>
        <time>2012-07-06T13:53:11.000Z</time>
      </trkpt>
      <trkpt lat="45.02068" lon="5.32236">
        <ele>250</ele>
        <time>2012-07-06T13:53:13.000Z</time>
      </trkpt>
      <trkpt lat="45.02063" lon="5.32244">
        <ele>253.39999389648</ele>
        <time>2012-07-06T13:53:20.000Z</time>
      </trkpt>
      <trkpt lat="45.0205" lon="5.3225">
        <ele>255.80000305176</ele>
        <time>2012-07-06T13:53:24.000Z</time>
      </trkpt>
      <trkpt lat="45.02031" lon="5.32259">
        <ele>256.20001220703</ele>
        <time>2012-07-06T13:53:30.000Z</time>
      </trkpt>
      <trkpt lat="45.02014" lon="5.32272">
        <ele>257.20001220703</ele>
        <time>2012-07-06T13:53:36.000Z</time>
      </trkpt>
      <trkpt lat="45.01994" lon="5.32299">
        <ele>257.60000610352</ele>
        <time>2012-07-06T13:53:45.000Z</time>
      </trkpt>
      <trkpt lat="45.01979" lon="5.32333">
        <ele>258.20001220703</ele>
        <time>2012-07-06T13:53:54.000Z</time>
      </trkpt>
      <trkpt lat="45.01963" lon="5.32365">
        <ele>260.60000610352</ele>
        <time>2012-07-06T13:54:02.000Z</time>
      </trkpt>
      <trkpt lat="45.01942" lon="5.32396">
        <ele>262.39999389648</ele>
        <time>2012-07-06T13:54:10.000Z</time>
      </trkpt>
      <trkpt lat="45.01914" lon="5.32432">
        <ele>264.39999389648</ele>
        <time>2012-07-06T13:54:20.000Z</time>
      </trkpt>
      <trkpt lat="45.01887" lon="5.32459">
        <ele>265.79998779297</ele>
        <time>2012-07-06T13:54:29.000Z</time>
      </trkpt>
      <trkpt lat="45.01874" lon="5.32474">
        <ele>268.20001220703</ele>
        <time>2012-07-06T13:54:34.000Z</time>
      </trkpt>
      <trkpt lat="45.01862" lon="5.32502">
        <ele>271.20001220703</ele>
        <time>2012-07-06T13:54:41.000Z</time>
      </trkpt>
      <trkpt lat="45.01853" lon="5.32525">
        <ele>274</ele>
        <time>2012-07-06T13:54:47.000Z</time>
      </trkpt>
      <trkpt lat="45.0186" lon="5.32532">
        <ele>275</ele>
        <time>2012-07-06T13:54:51.000Z</time>
      </trkpt>
      <trkpt lat="45.01866" lon="5.32528">
        <ele>275.39999389648</ele>
        <time>2012-07-06T13:54:53.000Z</time>
      </trkpt>
      <trkpt lat="45.01889" lon="5.32511">
        <ele>277.39999389648</ele>
        <time>2012-07-06T13:55:01.000Z</time>
      </trkpt>
      <trkpt lat="45.01894" lon="5.32508">
        <ele>277.79998779297</ele>
        <time>2012-07-06T13:55:03.000Z</time>
      </trkpt>
      <trkpt lat="45.01896" lon="5.3249">
        <ele>276.79998779297</ele>
        <time>2012-07-06T13:55:07.000Z</time>
      </trkpt>
      <trkpt lat="45.01887" lon="5.32479">
        <ele>276.39999389648</ele>
        <time>2012-07-06T13:55:09.000Z</time>
      </trkpt>
      <trkpt lat="45.01856" lon="5.32439">
        <ele>276.79998779297</ele>
        <time>2012-07-06T13:55:16.000Z</time>
      </trkpt>
      <trkpt lat="45.0182" lon="5.32381">
        <ele>277.79998779297</ele>
        <time>2012-07-06T13:55:25.000Z</time>
      </trkpt>
      <trkpt lat="45.01816" lon="5.32374">
        <ele>277.79998779297</ele>
        <time>2012-07-06T13:55:26.000Z</time>
      </trkpt>
      <trkpt lat="45.01809" lon="5.32335">
        <ele>278.39999389648</ele>
        <time>2012-07-06T13:55:31.000Z</time>
      </trkpt>
      <trkpt lat="45.01815" lon="5.32304">
        <ele>279.39999389648</ele>
        <time>2012-07-06T13:55:35.000Z</time>
      </trkpt>
      <trkpt lat="45.01821" lon="5.3229">
        <ele>279.39999389648</ele>
        <time>2012-07-06T13:55:37.000Z</time>
      </trkpt>
      <trkpt lat="45.01853" lon="5.3223">
        <ele>278.39999389648</ele>
        <time>2012-07-06T13:55:46.000Z</time>
      </trkpt>
      <trkpt lat="45.01882" lon="5.32171">
        <ele>277.39999389648</ele>
        <time>2012-07-06T13:55:54.000Z</time>
      </trkpt>
      <trkpt lat="45.01898" lon="5.32107">
        <ele>276.79998779297</ele>
        <time>2012-07-06T13:56:02.000Z</time>
      </trkpt>
      <trkpt lat="45.01912" lon="5.32046">
        <ele>278.39999389648</ele>
        <time>2012-07-06T13:56:10.000Z</time>
      </trkpt>
      <trkpt lat="45.01931" lon="5.31985">
        <ele>279.79998779297</ele>
        <time>2012-07-06T13:56:19.000Z</time>
      </trkpt>
      <trkpt lat="45.0195" lon="5.31924">
        <ele>280.79998779297</ele>
        <time>2012-07-06T13:56:28.000Z</time>
      </trkpt>
      <trkpt lat="45.01966" lon="5.31891">
        <ele>279.79998779297</ele>
        <time>2012-07-06T13:56:34.000Z</time>
      </trkpt>
      <trkpt lat="45.01986" lon="5.31863">
        <ele>278.79998779297</ele>
        <time>2012-07-06T13:56:39.000Z</time>
      </trkpt>
      <trkpt lat="45.02011" lon="5.31833">
        <ele>278.79998779297</ele>
        <time>2012-07-06T13:56:45.000Z</time>
      </trkpt>
      <trkpt lat="45.02042" lon="5.31801">
        <ele>277.79998779297</ele>
        <time>2012-07-06T13:56:52.000Z</time>
      </trkpt>
      <trkpt lat="45.02056" lon="5.31788">
        <ele>277.39999389648</ele>
        <time>2012-07-06T13:56:56.000Z</time>
      </trkpt>
      <trkpt lat="45.02061" lon="5.31774">
        <ele>277.39999389648</ele>
        <time>2012-07-06T13:57:00.000Z</time>
      </trkpt>
      <trkpt lat="45.02057" lon="5.31776">
        <ele>277.39999389648</ele>
        <time>2012-07-06T13:57:03.000Z</time>
      </trkpt>
      <trkpt lat="45.02052" lon="5.31781">
        <ele>277.39999389648</ele>
        <time>2012-07-06T13:57:05.000Z</time>
      </trkpt>
      <trkpt lat="45.02029" lon="5.31806">
        <ele>278.79998779297</ele>
        <time>2012-07-06T13:57:11.000Z</time>
      </trkpt>
      <trkpt lat="45.01996" lon="5.31841">
        <ele>281.20001220703</ele>
        <time>2012-07-06T13:57:19.000Z</time>
      </trkpt>
      <trkpt lat="45.01992" lon="5.31845">
        <ele>281.20001220703</ele>
        <time>2012-07-06T13:57:20.000Z</time>
      </trkpt>
      <trkpt lat="45.0197" lon="5.31868">
        <ele>282.60000610352</ele>
        <time>2012-07-06T13:57:28.000Z</time>
      </trkpt>
      <trkpt lat="45.01962" lon="5.31876">
        <ele>282.60000610352</ele>
        <time>2012-07-06T13:57:33.000Z</time>
      </trkpt>
      <trkpt lat="45.01957" lon="5.31885">
        <ele>282.60000610352</ele>
        <time>2012-07-06T13:57:38.000Z</time>
      </trkpt>
      <trkpt lat="45.01954" lon="5.31882">
        <ele>282.20001220703</ele>
        <time>2012-07-06T13:57:43.000Z</time>
      </trkpt>
      <trkpt lat="45.01967" lon="5.31869">
        <ele>282.20001220703</ele>
        <time>2012-07-06T13:57:50.000Z</time>
      </trkpt>
      <trkpt lat="45.01982" lon="5.31855">
        <ele>281.20001220703</ele>
        <time>2012-07-06T13:57:55.000Z</time>
      </trkpt>
      <trkpt lat="45.02" lon="5.31836">
        <ele>279.79998779297</ele>
        <time>2012-07-06T13:57:59.000Z</time>
      </trkpt>
      <trkpt lat="45.02036" lon="5.31796">
        <ele>277.39999389648</ele>
        <time>2012-07-06T13:58:06.000Z</time>
      </trkpt>
      <trkpt lat="45.02074" lon="5.31756">
        <ele>275</ele>
        <time>2012-07-06T13:58:13.000Z</time>
      </trkpt>
      <trkpt lat="45.02117" lon="5.31714">
        <ele>275</ele>
        <time>2012-07-06T13:58:21.000Z</time>
      </trkpt>
      <trkpt lat="45.02162" lon="5.31665">
        <ele>273</ele>
        <time>2012-07-06T13:58:30.000Z</time>
      </trkpt>
      <trkpt lat="45.02195" lon="5.31616">
        <ele>271.60000610352</ele>
        <time>2012-07-06T13:58:37.000Z</time>
      </trkpt>
      <trkpt lat="45.02237" lon="5.31545">
        <ele>269.60000610352</ele>
        <time>2012-07-06T13:58:46.000Z</time>
      </trkpt>
      <trkpt lat="45.02277" lon="5.31484">
        <ele>268.20001220703</ele>
        <time>2012-07-06T13:58:54.000Z</time>
      </trkpt>
      <trkpt lat="45.02287" lon="5.31469">
        <ele>268.20001220703</ele>
        <time>2012-07-06T13:58:56.000Z</time>
      </trkpt>
      <trkpt lat="45.02292" lon="5.31443">
        <ele>269.20001220703</ele>
        <time>2012-07-06T13:58:59.000Z</time>
      </trkpt>
      <trkpt lat="45.02289" lon="5.31435">
        <ele>269.60000610352</ele>
        <time>2012-07-06T13:59:00.000Z</time>
      </trkpt>
      <trkpt lat="45.02266" lon="5.31393">
        <ele>270.60000610352</ele>
        <time>2012-07-06T13:59:06.000Z</time>
      </trkpt>
      <trkpt lat="45.02258" lon="5.31349">
        <ele>270.60000610352</ele>
        <time>2012-07-06T13:59:11.000Z</time>
      </trkpt>
      <trkpt lat="45.02268" lon="5.31272">
        <ele>271.20001220703</ele>
        <time>2012-07-06T13:59:19.000Z</time>
      </trkpt>
      <trkpt lat="45.02276" lon="5.31191">
        <ele>271.20001220703</ele>
        <time>2012-07-06T13:59:27.000Z</time>
      </trkpt>
      <trkpt lat="45.02285" lon="5.31096">
        <ele>269.60000610352</ele>
        <time>2012-07-06T13:59:36.000Z</time>
      </trkpt>
      <trkpt lat="45.02294" lon="5.31032">
        <ele>269.20001220703</ele>
        <time>2012-07-06T13:59:42.000Z</time>
      </trkpt>
      <trkpt lat="45.02289" lon="5.30995">
        <ele>269.20001220703</ele>
        <time>2012-07-06T13:59:46.000Z</time>
      </trkpt>
      <trkpt lat="45.02285" lon="5.30987">
        <ele>269.60000610352</ele>
        <time>2012-07-06T13:59:47.000Z</time>
      </trkpt>
      <trkpt lat="45.02262" lon="5.30938">
        <ele>271.20001220703</ele>
        <time>2012-07-06T13:59:54.000Z</time>
      </trkpt>
      <trkpt lat="45.02262" lon="5.3092">
        <ele>272.60000610352</ele>
        <time>2012-07-06T13:59:58.000Z</time>
      </trkpt>
      <trkpt lat="45.02275" lon="5.30905">
        <ele>272.60000610352</ele>
        <time>2012-07-06T14:00:02.000Z</time>
      </trkpt>
      <trkpt lat="45.02284" lon="5.30899">
        <ele>272</ele>
        <time>2012-07-06T14:00:04.000Z</time>
      </trkpt>
      <trkpt lat="45.02294" lon="5.30893">
        <ele>271.60000610352</ele>
        <time>2012-07-06T14:00:06.000Z</time>
      </trkpt>
      <trkpt lat="45.02315" lon="5.30877">
        <ele>271.20001220703</ele>
        <time>2012-07-06T14:00:10.000Z</time>
      </trkpt>
      <trkpt lat="45.02329" lon="5.30864">
        <ele>270.60000610352</ele>
        <time>2012-07-06T14:00:13.000Z</time>
      </trkpt>
      <trkpt lat="45.0235" lon="5.30846">
        <ele>270.20001220703</ele>
        <time>2012-07-06T14:00:17.000Z</time>
      </trkpt>
      <trkpt lat="45.0236" lon="5.30837">
        <ele>269.20001220703</ele>
        <time>2012-07-06T14:00:19.000Z</time>
      </trkpt>
      <trkpt lat="45.0237" lon="5.30827">
        <ele>269.20001220703</ele>
        <time>2012-07-06T14:00:21.000Z</time>
      </trkpt>
      <trkpt lat="45.0238" lon="5.30818">
        <ele>269.20001220703</ele>
        <time>2012-07-06T14:00:23.000Z</time>
      </trkpt>
      <trkpt lat="45.02396" lon="5.30807">
        <ele>268.79998779297</ele>
        <time>2012-07-06T14:00:26.000Z</time>
      </trkpt>
      <trkpt lat="45.02423" lon="5.30791">
        <ele>268.20001220703</ele>
        <time>2012-07-06T14:00:31.000Z</time>
      </trkpt>
      <trkpt lat="45.02448" lon="5.30778">
        <ele>267.79998779297</ele>
        <time>2012-07-06T14:00:36.000Z</time>
      </trkpt>
      <trkpt lat="45.02462" lon="5.30772">
        <ele>268.79998779297</ele>
        <time>2012-07-06T14:00:39.000Z</time>
      </trkpt>
      <trkpt lat="45.02474" lon="5.30766">
        <ele>269.60000610352</ele>
        <time>2012-07-06T14:00:43.000Z</time>
      </trkpt>
      <trkpt lat="45.02472" lon="5.30766">
        <ele>270.20001220703</ele>
        <time>2012-07-06T14:00:48.000Z</time>
      </trkpt>
      <trkpt lat="45.0246" lon="5.30772">
        <ele>270.20001220703</ele>
        <time>2012-07-06T14:00:55.000Z</time>
      </trkpt>
      <trkpt lat="45.02444" lon="5.30778">
        <ele>272</ele>
        <time>2012-07-06T14:01:00.000Z</time>
      </trkpt>
      <trkpt lat="45.02428" lon="5.30786">
        <ele>272.60000610352</ele>
        <time>2012-07-06T14:01:05.000Z</time>
      </trkpt>
      <trkpt lat="45.0241" lon="5.30797">
        <ele>271.20001220703</ele>
        <time>2012-07-06T14:01:10.000Z</time>
      </trkpt>
      <trkpt lat="45.02389" lon="5.3081">
        <ele>272</ele>
        <time>2012-07-06T14:01:15.000Z</time>
      </trkpt>
      <trkpt lat="45.02366" lon="5.30828">
        <ele>271.20001220703</ele>
        <time>2012-07-06T14:01:21.000Z</time>
      </trkpt>
      <trkpt lat="45.02358" lon="5.30835">
        <ele>270.60000610352</ele>
        <time>2012-07-06T14:01:23.000Z</time>
      </trkpt>
      <trkpt lat="45.0235" lon="5.30842">
        <ele>270.20001220703</ele>
        <time>2012-07-06T14:01:25.000Z</time>
      </trkpt>
      <trkpt lat="45.0232" lon="5.30871">
        <ele>269.60000610352</ele>
        <time>2012-07-06T14:01:32.000Z</time>
      </trkpt>
      <trkpt lat="45.02295" lon="5.3089">
        <ele>268.79998779297</ele>
        <time>2012-07-06T14:01:37.000Z</time>
      </trkpt>
      <trkpt lat="45.02267" lon="5.30906">
        <ele>267.20001220703</ele>
        <time>2012-07-06T14:01:43.000Z</time>
      </trkpt>
      <trkpt lat="45.02249" lon="5.30928">
        <ele>267.79998779297</ele>
        <time>2012-07-06T14:01:48.000Z</time>
      </trkpt>
      <trkpt lat="45.02235" lon="5.30936">
        <ele>269.20001220703</ele>
        <time>2012-07-06T14:01:52.000Z</time>
      </trkpt>
      <trkpt lat="45.02224" lon="5.30933">
        <ele>270.60000610352</ele>
        <time>2012-07-06T14:01:56.000Z</time>
      </trkpt>
      <trkpt lat="45.02223" lon="5.3093">
        <ele>271.60000610352</ele>
        <time>2012-07-06T14:01:57.000Z</time>
      </trkpt>
      <trkpt lat="45.02233" lon="5.30909">
        <ele>276</ele>
        <time>2012-07-06T14:02:05.000Z</time>
      </trkpt>
      <trkpt lat="45.02237" lon="5.30904">
        <ele>276.79998779297</ele>
        <time>2012-07-06T14:02:08.000Z</time>
      </trkpt>
      <trkpt lat="45.02247" lon="5.3089">
        <ele>279.39999389648</ele>
        <time>2012-07-06T14:02:15.000Z</time>
      </trkpt>
      <trkpt lat="45.02253" lon="5.3088">
        <ele>283.20001220703</ele>
        <time>2012-07-06T14:02:20.000Z</time>
      </trkpt>
      <trkpt lat="45.02265" lon="5.30863">
        <ele>286.60000610352</ele>
        <time>2012-07-06T14:02:27.000Z</time>
      </trkpt>
      <trkpt lat="45.02277" lon="5.30843">
        <ele>288</ele>
        <time>2012-07-06T14:02:35.000Z</time>
      </trkpt>
      <trkpt lat="45.02287" lon="5.30824">
        <ele>289</ele>
        <time>2012-07-06T14:02:42.000Z</time>
      </trkpt>
      <trkpt lat="45.0229" lon="5.30816">
        <ele>289.39999389648</ele>
        <time>2012-07-06T14:02:45.000Z</time>
      </trkpt>
      <trkpt lat="45.02296" lon="5.30795">
        <ele>289.39999389648</ele>
        <time>2012-07-06T14:02:52.000Z</time>
      </trkpt>
      <trkpt lat="45.02297" lon="5.30768">
        <ele>291.79998779297</ele>
        <time>2012-07-06T14:02:58.000Z</time>
      </trkpt>
      <trkpt lat="45.02294" lon="5.30746">
        <ele>293.79998779297</ele>
        <time>2012-07-06T14:03:04.000Z</time>
      </trkpt>
      <trkpt lat="45.02292" lon="5.30724">
        <ele>295.20001220703</ele>
        <time>2012-07-06T14:03:11.000Z</time>
      </trkpt>
      <trkpt lat="45.02291" lon="5.30718">
        <ele>295.20001220703</ele>
        <time>2012-07-06T14:03:13.000Z</time>
      </trkpt>
      <trkpt lat="45.02288" lon="5.30716">
        <ele>295.60000610352</ele>
        <time>2012-07-06T14:03:17.000Z</time>
      </trkpt>
      <trkpt lat="45.02287" lon="5.30712">
        <ele>296.20001220703</ele>
        <time>2012-07-06T14:03:20.000Z</time>
      </trkpt>
      <trkpt lat="45.0228" lon="5.30687">
        <ele>295.20001220703</ele>
        <time>2012-07-06T14:03:27.000Z</time>
      </trkpt>
      <trkpt lat="45.02267" lon="5.30655">
        <ele>292.79998779297</ele>
        <time>2012-07-06T14:03:32.000Z</time>
      </trkpt>
      <trkpt lat="45.02249" lon="5.30614">
        <ele>289.79998779297</ele>
        <time>2012-07-06T14:03:37.000Z</time>
      </trkpt>
      <trkpt lat="45.02233" lon="5.30566">
        <ele>289.79998779297</ele>
        <time>2012-07-06T14:03:42.000Z</time>
      </trkpt>
      <trkpt lat="45.0222" lon="5.30535">
        <ele>290.79998779297</ele>
        <time>2012-07-06T14:03:46.000Z</time>
      </trkpt>
      <trkpt lat="45.02212" lon="5.30522">
        <ele>291.79998779297</ele>
        <time>2012-07-06T14:03:48.000Z</time>
      </trkpt>
      <trkpt lat="45.02186" lon="5.30495">
        <ele>293.79998779297</ele>
        <time>2012-07-06T14:03:54.000Z</time>
      </trkpt>
      <trkpt lat="45.02157" lon="5.30472">
        <ele>294.60000610352</ele>
        <time>2012-07-06T14:04:01.000Z</time>
      </trkpt>
      <trkpt lat="45.02125" lon="5.30448">
        <ele>293.79998779297</ele>
        <time>2012-07-06T14:04:07.000Z</time>
      </trkpt>
      <trkpt lat="45.02102" lon="5.30429">
        <ele>291.79998779297</ele>
        <time>2012-07-06T14:04:11.000Z</time>
      </trkpt>
      <trkpt lat="45.02085" lon="5.30412">
        <ele>289.79998779297</ele>
        <time>2012-07-06T14:04:15.000Z</time>
      </trkpt>
      <trkpt lat="45.02086" lon="5.30398">
        <ele>289.79998779297</ele>
        <time>2012-07-06T14:04:18.000Z</time>
      </trkpt>
      <trkpt lat="45.02088" lon="5.30388">
        <ele>289.79998779297</ele>
        <time>2012-07-06T14:04:22.000Z</time>
      </trkpt>
      <trkpt lat="45.02088" lon="5.30386">
        <ele>289.79998779297</ele>
        <time>2012-07-06T14:04:23.000Z</time>
      </trkpt>
      <trkpt lat="45.02094" lon="5.30368">
        <ele>289</ele>
        <time>2012-07-06T14:04:29.000Z</time>
      </trkpt>
      <trkpt lat="45.02099" lon="5.30337">
        <ele>287.39999389648</ele>
        <time>2012-07-06T14:04:34.000Z</time>
      </trkpt>
      <trkpt lat="45.02105" lon="5.30297">
        <ele>286.60000610352</ele>
        <time>2012-07-06T14:04:39.000Z</time>
      </trkpt>
      <trkpt lat="45.02114" lon="5.30234">
        <ele>285</ele>
        <time>2012-07-06T14:04:46.000Z</time>
      </trkpt>
      <trkpt lat="45.02117" lon="5.30197">
        <ele>283.60000610352</ele>
        <time>2012-07-06T14:04:50.000Z</time>
      </trkpt>
      <trkpt lat="45.02124" lon="5.30127">
        <ele>281.79998779297</ele>
        <time>2012-07-06T14:04:58.000Z</time>
      </trkpt>
      <trkpt lat="45.02126" lon="5.30123">
        <ele>281.20001220703</ele>
        <time>2012-07-06T14:04:59.000Z</time>
      </trkpt>
      <trkpt lat="45.02143" lon="5.30115">
        <ele>278.79998779297</ele>
        <time>2012-07-06T14:05:03.000Z</time>
      </trkpt>
      <trkpt lat="45.02144" lon="5.30108">
        <ele>276.79998779297</ele>
        <time>2012-07-06T14:05:05.000Z</time>
      </trkpt>
      <trkpt lat="45.02141" lon="5.30103">
        <ele>276.39999389648</ele>
        <time>2012-07-06T14:05:06.000Z</time>
      </trkpt>
      <trkpt lat="45.02126" lon="5.30063">
        <ele>270.60000610352</ele>
        <time>2012-07-06T14:05:11.000Z</time>
      </trkpt>
      <trkpt lat="45.02122" lon="5.30046">
        <ele>267.79998779297</ele>
        <time>2012-07-06T14:05:13.000Z</time>
      </trkpt>
      <trkpt lat="45.02118" lon="5.30033">
        <ele>266.39999389648</ele>
        <time>2012-07-06T14:05:15.000Z</time>
      </trkpt>
      <trkpt lat="45.0211" lon="5.30021">
        <ele>264.79998779297</ele>
        <time>2012-07-06T14:05:17.000Z</time>
      </trkpt>
      <trkpt lat="45.02099" lon="5.29986">
        <ele>261.60000610352</ele>
        <time>2012-07-06T14:05:22.000Z</time>
      </trkpt>
      <trkpt lat="45.02099" lon="5.29982">
        <ele>262</ele>
        <time>2012-07-06T14:05:25.000Z</time>
      </trkpt>
      <trkpt lat="45.02096" lon="5.29978">
        <ele>264</ele>
        <time>2012-07-06T14:05:41.000Z</time>
      </trkpt>
      <trkpt lat="45.02088" lon="5.29973">
        <ele>264</ele>
        <time>2012-07-06T14:05:46.000Z</time>
      </trkpt>
      <trkpt lat="45.0207" lon="5.29964">
        <ele>262</ele>
        <time>2012-07-06T14:05:52.000Z</time>
      </trkpt>
      <trkpt lat="45.02056" lon="5.29951">
        <ele>260</ele>
        <time>2012-07-06T14:05:56.000Z</time>
      </trkpt>
      <trkpt lat="45.02041" lon="5.29941">
        <ele>261.60000610352</ele>
        <time>2012-07-06T14:06:00.000Z</time>
      </trkpt>
      <trkpt lat="45.02027" lon="5.29931">
        <ele>263</ele>
        <time>2012-07-06T14:06:04.000Z</time>
      </trkpt>
      <trkpt lat="45.02013" lon="5.29914">
        <ele>265.79998779297</ele>
        <time>2012-07-06T14:06:08.000Z</time>
      </trkpt>
      <trkpt lat="45.02001" lon="5.29903">
        <ele>266.39999389648</ele>
        <time>2012-07-06T14:06:12.000Z</time>
      </trkpt>
      <trkpt lat="45.01993" lon="5.29893">
        <ele>267.79998779297</ele>
        <time>2012-07-06T14:06:14.000Z</time>
      </trkpt>
      <trkpt lat="45.01977" lon="5.29871">
        <ele>268.79998779297</ele>
        <time>2012-07-06T14:06:18.000Z</time>
      </trkpt>
      <trkpt lat="45.01957" lon="5.2985">
        <ele>269.60000610352</ele>
        <time>2012-07-06T14:06:24.000Z</time>
      </trkpt>
      <trkpt lat="45.0195" lon="5.29848">
        <ele>268.79998779297</ele>
        <time>2012-07-06T14:06:26.000Z</time>
      </trkpt>
      <trkpt lat="45.01938" lon="5.29833">
        <ele>270.60000610352</ele>
        <time>2012-07-06T14:06:30.000Z</time>
      </trkpt>
      <trkpt lat="45.0193" lon="5.29825">
        <ele>271.20001220703</ele>
        <time>2012-07-06T14:06:32.000Z</time>
      </trkpt>
      <trkpt lat="45.01904" lon="5.29793">
        <ele>271.20001220703</ele>
        <time>2012-07-06T14:06:40.000Z</time>
      </trkpt>
      <trkpt lat="45.01892" lon="5.29778">
        <ele>271.20001220703</ele>
        <time>2012-07-06T14:06:44.000Z</time>
      </trkpt>
      <trkpt lat="45.01882" lon="5.2976">
        <ele>271.20001220703</ele>
        <time>2012-07-06T14:06:49.000Z</time>
      </trkpt>
      <trkpt lat="45.01868" lon="5.29742">
        <ele>271.20001220703</ele>
        <time>2012-07-06T14:06:54.000Z</time>
      </trkpt>
      <trkpt lat="45.0185" lon="5.29712">
        <ele>270.60000610352</ele>
        <time>2012-07-06T14:07:00.000Z</time>
      </trkpt>
      <trkpt lat="45.0183" lon="5.29683">
        <ele>271.60000610352</ele>
        <time>2012-07-06T14:07:06.000Z</time>
      </trkpt>
      <trkpt lat="45.01794" lon="5.29648">
        <ele>271.60000610352</ele>
        <time>2012-07-06T14:07:15.000Z</time>
      </trkpt>
      <trkpt lat="45.01758" lon="5.2962">
        <ele>273.60000610352</ele>
        <time>2012-07-06T14:07:23.000Z</time>
      </trkpt>
      <trkpt lat="45.0175" lon="5.29613">
        <ele>273.60000610352</ele>
        <time>2012-07-06T14:07:25.000Z</time>
      </trkpt>
      <trkpt lat="45.01742" lon="5.29595">
        <ele>273.60000610352</ele>
        <time>2012-07-06T14:07:29.000Z</time>
      </trkpt>
      <trkpt lat="45.01745" lon="5.29579">
        <ele>274</ele>
        <time>2012-07-06T14:07:32.000Z</time>
      </trkpt>
      <trkpt lat="45.01748" lon="5.29563">
        <ele>273.60000610352</ele>
        <time>2012-07-06T14:07:35.000Z</time>
      </trkpt>
      <trkpt lat="45.01748" lon="5.29543">
        <ele>276</ele>
        <time>2012-07-06T14:07:41.000Z</time>
      </trkpt>
      <trkpt lat="45.01743" lon="5.2953">
        <ele>277.79998779297</ele>
        <time>2012-07-06T14:07:47.000Z</time>
      </trkpt>
      <trkpt lat="45.01739" lon="5.29514">
        <ele>280.20001220703</ele>
        <time>2012-07-06T14:07:54.000Z</time>
      </trkpt>
      <trkpt lat="45.01737" lon="5.29508">
        <ele>281.20001220703</ele>
        <time>2012-07-06T14:07:57.000Z</time>
      </trkpt>
      <trkpt lat="45.0174" lon="5.29502">
        <ele>281.79998779297</ele>
        <time>2012-07-06T14:08:01.000Z</time>
      </trkpt>
      <trkpt lat="45.01745" lon="5.295">
        <ele>281.79998779297</ele>
        <time>2012-07-06T14:08:06.000Z</time>
      </trkpt>
      <trkpt lat="45.01754" lon="5.29484">
        <ele>280.20001220703</ele>
        <time>2012-07-06T14:08:11.000Z</time>
      </trkpt>
      <trkpt lat="45.01757" lon="5.2948">
        <ele>279.79998779297</ele>
        <time>2012-07-06T14:08:12.000Z</time>
      </trkpt>
      <trkpt lat="45.01754" lon="5.29472">
        <ele>279.39999389648</ele>
        <time>2012-07-06T14:08:15.000Z</time>
      </trkpt>
      <trkpt lat="45.01748" lon="5.29466">
        <ele>278.79998779297</ele>
        <time>2012-07-06T14:08:18.000Z</time>
      </trkpt>
      <trkpt lat="45.01748" lon="5.29455">
        <ele>278.39999389648</ele>
        <time>2012-07-06T14:08:20.000Z</time>
      </trkpt>
      <trkpt lat="45.01752" lon="5.29425">
        <ele>277.39999389648</ele>
        <time>2012-07-06T14:08:25.000Z</time>
      </trkpt>
      <trkpt lat="45.01764" lon="5.29403">
        <ele>275</ele>
        <time>2012-07-06T14:08:29.000Z</time>
      </trkpt>
      <trkpt lat="45.01772" lon="5.29375">
        <ele>270.20001220703</ele>
        <time>2012-07-06T14:08:33.000Z</time>
      </trkpt>
      <trkpt lat="45.01769" lon="5.29346">
        <ele>264.79998779297</ele>
        <time>2012-07-06T14:08:37.000Z</time>
      </trkpt>
      <trkpt lat="45.01772" lon="5.29331">
        <ele>264.39999389648</ele>
        <time>2012-07-06T14:08:40.000Z</time>
      </trkpt>
      <trkpt lat="45.01778" lon="5.29314">
        <ele>261.60000610352</ele>
        <time>2012-07-06T14:08:44.000Z</time>
      </trkpt>
      <trkpt lat="45.01785" lon="5.29301">
        <ele>263</ele>
        <time>2012-07-06T14:08:48.000Z</time>
      </trkpt>
      <trkpt lat="45.0178" lon="5.29287">
        <ele>265.39999389648</ele>
        <time>2012-07-06T14:08:52.000Z</time>
      </trkpt>
      <trkpt lat="45.0178" lon="5.29266">
        <ele>265.39999389648</ele>
        <time>2012-07-06T14:08:56.000Z</time>
      </trkpt>
      <trkpt lat="45.01782" lon="5.29261">
        <ele>265.39999389648</ele>
        <time>2012-07-06T14:08:57.000Z</time>
      </trkpt>
      <trkpt lat="45.01783" lon="5.29226">
        <ele>264</ele>
        <time>2012-07-06T14:09:01.000Z</time>
      </trkpt>
      <trkpt lat="45.01784" lon="5.29202">
        <ele>263</ele>
        <time>2012-07-06T14:09:03.000Z</time>
      </trkpt>
      <trkpt lat="45.01793" lon="5.29164">
        <ele>258.20001220703</ele>
        <time>2012-07-06T14:09:06.000Z</time>
      </trkpt>
      <trkpt lat="45.01801" lon="5.29095">
        <ele>251.39999389648</ele>
        <time>2012-07-06T14:09:12.000Z</time>
      </trkpt>
      <trkpt lat="45.01806" lon="5.29024">
        <ele>249</ele>
        <time>2012-07-06T14:09:18.000Z</time>
      </trkpt>
      <trkpt lat="45.01821" lon="5.29004">
        <ele>248</ele>
        <time>2012-07-06T14:09:22.000Z</time>
      </trkpt>
      <trkpt lat="45.0183" lon="5.29013">
        <ele>248</ele>
        <time>2012-07-06T14:09:24.000Z</time>
      </trkpt>
      <trkpt lat="45.01844" lon="5.2902">
        <ele>246.60000610352</ele>
        <time>2012-07-06T14:09:28.000Z</time>
      </trkpt>
      <trkpt lat="45.01843" lon="5.29017">
        <ele>247</ele>
        <time>2012-07-06T14:09:29.000Z</time>
      </trkpt>
      <trkpt lat="45.01834" lon="5.29001">
        <ele>247</ele>
        <time>2012-07-06T14:09:34.000Z</time>
      </trkpt>
      <trkpt lat="45.01836" lon="5.28997">
        <ele>246.19999694824</ele>
        <time>2012-07-06T14:09:38.000Z</time>
      </trkpt>
      <trkpt lat="45.0184" lon="5.29001">
        <ele>245.60000610352</ele>
        <time>2012-07-06T14:09:40.000Z</time>
      </trkpt>
      <trkpt lat="45.01861" lon="5.29015">
        <ele>242.80000305176</ele>
        <time>2012-07-06T14:09:45.000Z</time>
      </trkpt>
      <trkpt lat="45.01876" lon="5.29014">
        <ele>240.80000305176</ele>
        <time>2012-07-06T14:09:47.000Z</time>
      </trkpt>
      <trkpt lat="45.01904" lon="5.28997">
        <ele>237.39999389648</ele>
        <time>2012-07-06T14:09:51.000Z</time>
      </trkpt>
      <trkpt lat="45.01914" lon="5.2899">
        <ele>235.60000610352</ele>
        <time>2012-07-06T14:09:53.000Z</time>
      </trkpt>
      <trkpt lat="45.01935" lon="5.28986">
        <ele>232.60000610352</ele>
        <time>2012-07-06T14:09:58.000Z</time>
      </trkpt>
      <trkpt lat="45.01952" lon="5.28983">
        <ele>229.39999389648</ele>
        <time>2012-07-06T14:10:01.000Z</time>
      </trkpt>
      <trkpt lat="45.01988" lon="5.28982">
        <ele>227</ele>
        <time>2012-07-06T14:10:07.000Z</time>
      </trkpt>
      <trkpt lat="45.02" lon="5.28984">
        <ele>226</ele>
        <time>2012-07-06T14:10:09.000Z</time>
      </trkpt>
      <trkpt lat="45.0202" lon="5.28976">
        <ele>228.39999389648</ele>
        <time>2012-07-06T14:10:13.000Z</time>
      </trkpt>
      <trkpt lat="45.02042" lon="5.28965">
        <ele>226</ele>
        <time>2012-07-06T14:10:19.000Z</time>
      </trkpt>
      <trkpt lat="45.02049" lon="5.28966">
        <ele>228.80000305176</ele>
        <time>2012-07-06T14:10:22.000Z</time>
      </trkpt>
      <trkpt lat="45.02048" lon="5.28961">
        <ele>227.39999389648</ele>
        <time>2012-07-06T14:10:26.000Z</time>
      </trkpt>
      <trkpt lat="45.02037" lon="5.28963">
        <ele>229.39999389648</ele>
        <time>2012-07-06T14:10:30.000Z</time>
      </trkpt>
      <trkpt lat="45.0203" lon="5.28966">
        <ele>229.80000305176</ele>
        <time>2012-07-06T14:10:32.000Z</time>
      </trkpt>
      <trkpt lat="45.02022" lon="5.2895">
        <ele>227</ele>
        <time>2012-07-06T14:10:38.000Z</time>
      </trkpt>
      <trkpt lat="45.02019" lon="5.28943">
        <ele>225</ele>
        <time>2012-07-06T14:10:40.000Z</time>
      </trkpt>
      <trkpt lat="45.02013" lon="5.28932">
        <ele>223.60000610352</ele>
        <time>2012-07-06T14:10:43.000Z</time>
      </trkpt>
      <trkpt lat="45.02005" lon="5.28925">
        <ele>223.60000610352</ele>
        <time>2012-07-06T14:10:49.000Z</time>
      </trkpt>
      <trkpt lat="45.01999" lon="5.2891">
        <ele>223</ele>
        <time>2012-07-06T14:10:54.000Z</time>
      </trkpt>
      <trkpt lat="45.01995" lon="5.28884">
        <ele>224.60000610352</ele>
        <time>2012-07-06T14:10:59.000Z</time>
      </trkpt>
      <trkpt lat="45.01991" lon="5.2886">
        <ele>226.39999389648</ele>
        <time>2012-07-06T14:11:03.000Z</time>
      </trkpt>
      <trkpt lat="45.01988" lon="5.28855">
        <ele>226.39999389648</ele>
        <time>2012-07-06T14:11:04.000Z</time>
      </trkpt>
      <trkpt lat="45.01972" lon="5.28847">
        <ele>227</ele>
        <time>2012-07-06T14:11:08.000Z</time>
      </trkpt>
      <trkpt lat="45.01967" lon="5.28846">
        <ele>227</ele>
        <time>2012-07-06T14:11:09.000Z</time>
      </trkpt>
      <trkpt lat="45.01945" lon="5.28852">
        <ele>227.80000305176</ele>
        <time>2012-07-06T14:11:14.000Z</time>
      </trkpt>
      <trkpt lat="45.01922" lon="5.28867">
        <ele>227.80000305176</ele>
        <time>2012-07-06T14:11:20.000Z</time>
      </trkpt>
      <trkpt lat="45.01913" lon="5.28885">
        <ele>228.80000305176</ele>
        <time>2012-07-06T14:11:24.000Z</time>
      </trkpt>
      <trkpt lat="45.01915" lon="5.28902">
        <ele>227.80000305176</ele>
        <time>2012-07-06T14:11:27.000Z</time>
      </trkpt>
      <trkpt lat="45.0191" lon="5.28914">
        <ele>229.80000305176</ele>
        <time>2012-07-06T14:11:30.000Z</time>
      </trkpt>
      <trkpt lat="45.01903" lon="5.28918">
        <ele>230.80000305176</ele>
        <time>2012-07-06T14:11:33.000Z</time>
      </trkpt>
      <trkpt lat="45.01902" lon="5.28935">
        <ele>232.60000610352</ele>
        <time>2012-07-06T14:11:38.000Z</time>
      </trkpt>
      <trkpt lat="45.01897" lon="5.28964">
        <ele>233.60000610352</ele>
        <time>2012-07-06T14:11:44.000Z</time>
      </trkpt>
      <trkpt lat="45.01898" lon="5.28984">
        <ele>236.60000610352</ele>
        <time>2012-07-06T14:11:50.000Z</time>
      </trkpt>
      <trkpt lat="45.01897" lon="5.29001">
        <ele>239</ele>
        <time>2012-07-06T14:11:55.000Z</time>
      </trkpt>
      <trkpt lat="45.0189" lon="5.2901">
        <ele>239.39999389648</ele>
        <time>2012-07-06T14:12:00.000Z</time>
      </trkpt>
      <trkpt lat="45.01881" lon="5.29012">
        <ele>240.80000305176</ele>
        <time>2012-07-06T14:12:06.000Z</time>
      </trkpt>
      <trkpt lat="45.01873" lon="5.29017">
        <ele>242.19999694824</ele>
        <time>2012-07-06T14:12:11.000Z</time>
      </trkpt>
      <trkpt lat="45.01865" lon="5.29018">
        <ele>243.19999694824</ele>
        <time>2012-07-06T14:12:16.000Z</time>
      </trkpt>
      <trkpt lat="45.01853" lon="5.29014">
        <ele>244.19999694824</ele>
        <time>2012-07-06T14:12:23.000Z</time>
      </trkpt>
      <trkpt lat="45.01843" lon="5.29009">
        <ele>245.60000610352</ele>
        <time>2012-07-06T14:12:29.000Z</time>
      </trkpt>
      <trkpt lat="45.01841" lon="5.29009">
        <ele>246.19999694824</ele>
        <time>2012-07-06T14:12:30.000Z</time>
      </trkpt>
      <trkpt lat="45.01835" lon="5.29007">
        <ele>246.19999694824</ele>
        <time>2012-07-06T14:12:35.000Z</time>
      </trkpt>
      <trkpt lat="45.01833" lon="5.29011">
        <ele>246.19999694824</ele>
        <time>2012-07-06T14:12:39.000Z</time>
      </trkpt>
      <trkpt lat="45.01835" lon="5.29017">
        <ele>246.19999694824</ele>
        <time>2012-07-06T14:12:41.000Z</time>
      </trkpt>
      <trkpt lat="45.01854" lon="5.29035">
        <ele>247</ele>
        <time>2012-07-06T14:12:47.000Z</time>
      </trkpt>
      <trkpt lat="45.01881" lon="5.29049">
        <ele>247</ele>
        <time>2012-07-06T14:12:53.000Z</time>
      </trkpt>
      <trkpt lat="45.01917" lon="5.29068">
        <ele>247</ele>
        <time>2012-07-06T14:13:00.000Z</time>
      </trkpt>
      <trkpt lat="45.01966" lon="5.29092">
        <ele>247.60000610352</ele>
        <time>2012-07-06T14:13:09.000Z</time>
      </trkpt>
      <trkpt lat="45.02009" lon="5.29114">
        <ele>247.60000610352</ele>
        <time>2012-07-06T14:13:17.000Z</time>
      </trkpt>
      <trkpt lat="45.0205" lon="5.29136">
        <ele>249</ele>
        <time>2012-07-06T14:13:25.000Z</time>
      </trkpt>
      <trkpt lat="45.02059" lon="5.29141">
        <ele>249</ele>
        <time>2012-07-06T14:13:27.000Z</time>
      </trkpt>
      <trkpt lat="45.02078" lon="5.2914">
        <ele>248.60000610352</ele>
        <time>2012-07-06T14:13:31.000Z</time>
      </trkpt>
      <trkpt lat="45.02088" lon="5.29133">
        <ele>247.60000610352</ele>
        <time>2012-07-06T14:13:33.000Z</time>
      </trkpt>
      <trkpt lat="45.02098" lon="5.29124">
        <ele>247</ele>
        <time>2012-07-06T14:13:35.000Z</time>
      </trkpt>
      <trkpt lat="45.02133" lon="5.29086">
        <ele>244.60000610352</ele>
        <time>2012-07-06T14:13:42.000Z</time>
      </trkpt>
      <trkpt lat="45.02164" lon="5.29047">
        <ele>241.39999389648</ele>
        <time>2012-07-06T14:13:48.000Z</time>
      </trkpt>
      <trkpt lat="45.02204" lon="5.28995">
        <ele>237</ele>
        <time>2012-07-06T14:13:55.000Z</time>
      </trkpt>
      <trkpt lat="45.02256" lon="5.28932">
        <ele>232.60000610352</ele>
        <time>2012-07-06T14:14:03.000Z</time>
      </trkpt>
      <trkpt lat="45.02274" lon="5.28908">
        <ele>231.19999694824</ele>
        <time>2012-07-06T14:14:06.000Z</time>
      </trkpt>
      <trkpt lat="45.02299" lon="5.28852">
        <ele>229.39999389648</ele>
        <time>2012-07-06T14:14:12.000Z</time>
      </trkpt>
      <trkpt lat="45.02325" lon="5.2879">
        <ele>228.80000305176</ele>
        <time>2012-07-06T14:14:19.000Z</time>
      </trkpt>
      <trkpt lat="45.02345" lon="5.28751">
        <ele>228.39999389648</ele>
        <time>2012-07-06T14:14:24.000Z</time>
      </trkpt>
      <trkpt lat="45.02359" lon="5.28731">
        <ele>228.39999389648</ele>
        <time>2012-07-06T14:14:27.000Z</time>
      </trkpt>
      <trkpt lat="45.02404" lon="5.28684">
        <ele>226.39999389648</ele>
        <time>2012-07-06T14:14:35.000Z</time>
      </trkpt>
      <trkpt lat="45.0244" lon="5.28671">
        <ele>226</ele>
        <time>2012-07-06T14:14:40.000Z</time>
      </trkpt>
      <trkpt lat="45.02474" lon="5.2868">
        <ele>226</ele>
        <time>2012-07-06T14:14:45.000Z</time>
      </trkpt>
      <trkpt lat="45.02491" lon="5.28697">
        <ele>226</ele>
        <time>2012-07-06T14:14:48.000Z</time>
      </trkpt>
      <trkpt lat="45.02525" lon="5.28763">
        <ele>227.80000305176</ele>
        <time>2012-07-06T14:14:57.000Z</time>
      </trkpt>
      <trkpt lat="45.02532" lon="5.28775">
        <ele>227.80000305176</ele>
        <time>2012-07-06T14:14:59.000Z</time>
      </trkpt>
      <trkpt lat="45.02553" lon="5.28793">
        <ele>228.39999389648</ele>
        <time>2012-07-06T14:15:04.000Z</time>
      </trkpt>
      <trkpt lat="45.0259" lon="5.28805">
        <ele>227</ele>
        <time>2012-07-06T14:15:11.000Z</time>
      </trkpt>
      <trkpt lat="45.02618" lon="5.28804">
        <ele>225</ele>
        <time>2012-07-06T14:15:16.000Z</time>
      </trkpt>
      <trkpt lat="45.02665" lon="5.28827">
        <ele>224</ele>
        <time>2012-07-06T14:15:24.000Z</time>
      </trkpt>
      <trkpt lat="45.02707" lon="5.28866">
        <ele>223.60000610352</ele>
        <time>2012-07-06T14:15:32.000Z</time>
      </trkpt>
      <trkpt lat="45.02757" lon="5.28912">
        <ele>223.60000610352</ele>
        <time>2012-07-06T14:15:41.000Z</time>
      </trkpt>
      <trkpt lat="45.02797" lon="5.28949">
        <ele>224</ele>
        <time>2012-07-06T14:15:49.000Z</time>
      </trkpt>
      <trkpt lat="45.0282" lon="5.28976">
        <ele>224.60000610352</ele>
        <time>2012-07-06T14:15:55.000Z</time>
      </trkpt>
      <trkpt lat="45.02834" lon="5.29007">
        <ele>222.60000610352</ele>
        <time>2012-07-06T14:16:00.000Z</time>
      </trkpt>
      <trkpt lat="45.02852" lon="5.29052">
        <ele>220.19999694824</ele>
        <time>2012-07-06T14:16:05.000Z</time>
      </trkpt>
      <trkpt lat="45.02866" lon="5.29082">
        <ele>217.80000305176</ele>
        <time>2012-07-06T14:16:08.000Z</time>
      </trkpt>
      <trkpt lat="45.02912" lon="5.2915">
        <ele>214.80000305176</ele>
        <time>2012-07-06T14:16:15.000Z</time>
      </trkpt>
      <trkpt lat="45.02942" lon="5.29194">
        <ele>214</ele>
        <time>2012-07-06T14:16:20.000Z</time>
      </trkpt>
      <trkpt lat="45.02962" lon="5.29226">
        <ele>214</ele>
        <time>2012-07-06T14:16:24.000Z</time>
      </trkpt>
      <trkpt lat="45.02978" lon="5.29246">
        <ele>214</ele>
        <time>2012-07-06T14:16:27.000Z</time>
      </trkpt>
      <trkpt lat="45.02993" lon="5.29267">
        <ele>213.39999389648</ele>
        <time>2012-07-06T14:16:31.000Z</time>
      </trkpt>
      <trkpt lat="45.02997" lon="5.2927">
        <ele>213</ele>
        <time>2012-07-06T14:16:34.000Z</time>
      </trkpt>
      <trkpt lat="45.03007" lon="5.29269">
        <ele>211</ele>
        <time>2012-07-06T14:16:42.000Z</time>
      </trkpt>
      <trkpt lat="45.03013" lon="5.29268">
        <ele>211</ele>
        <time>2012-07-06T14:16:45.000Z</time>
      </trkpt>
      <trkpt lat="45.03023" lon="5.29272">
        <ele>212</ele>
        <time>2012-07-06T14:16:50.000Z</time>
      </trkpt>
      <trkpt lat="45.03022" lon="5.29274">
        <ele>212.39999389648</ele>
        <time>2012-07-06T14:16:54.000Z</time>
      </trkpt>
      <trkpt lat="45.0302" lon="5.29273">
        <ele>212.39999389648</ele>
        <time>2012-07-06T14:16:55.000Z</time>
      </trkpt>
      <trkpt lat="45.03006" lon="5.29266">
        <ele>212.39999389648</ele>
        <time>2012-07-06T14:17:00.000Z</time>
      </trkpt>
      <trkpt lat="45.03001" lon="5.29264">
        <ele>212.39999389648</ele>
        <time>2012-07-06T14:17:05.000Z</time>
      </trkpt>
      <trkpt lat="45.02999" lon="5.29262">
        <ele>213</ele>
        <time>2012-07-06T14:17:13.000Z</time>
      </trkpt>
      <trkpt lat="45.02996" lon="5.2926">
        <ele>212.39999389648</ele>
        <time>2012-07-06T14:17:20.000Z</time>
      </trkpt>
      <trkpt lat="45.02991" lon="5.29256">
        <ele>212</ele>
        <time>2012-07-06T14:17:25.000Z</time>
      </trkpt>
      <trkpt lat="45.02972" lon="5.29234">
        <ele>211.60000610352</ele>
        <time>2012-07-06T14:17:33.000Z</time>
      </trkpt>
      <trkpt lat="45.02955" lon="5.29211">
        <ele>211</ele>
        <time>2012-07-06T14:17:39.000Z</time>
      </trkpt>
      <trkpt lat="45.02929" lon="5.29174">
        <ele>210.60000610352</ele>
        <time>2012-07-06T14:17:48.000Z</time>
      </trkpt>
      <trkpt lat="45.02908" lon="5.29145">
        <ele>210.60000610352</ele>
        <time>2012-07-06T14:17:55.000Z</time>
      </trkpt>
      <trkpt lat="45.02901" lon="5.29144">
        <ele>211</ele>
        <time>2012-07-06T14:17:59.000Z</time>
      </trkpt>
      <trkpt lat="45.029" lon="5.29146">
        <ele>211</ele>
        <time>2012-07-06T14:18:00.000Z</time>
      </trkpt>
      <trkpt lat="45.02889" lon="5.29167">
        <ele>210.60000610352</ele>
        <time>2012-07-06T14:18:06.000Z</time>
      </trkpt>
      <trkpt lat="45.02885" lon="5.29173">
        <ele>210.60000610352</ele>
        <time>2012-07-06T14:18:10.000Z</time>
      </trkpt>
      <trkpt lat="45.02884" lon="5.29178">
        <ele>210.60000610352</ele>
        <time>2012-07-06T14:18:12.000Z</time>
      </trkpt>
      <trkpt lat="45.02883" lon="5.2918">
        <ele>211.60000610352</ele>
        <time>2012-07-06T14:18:14.000Z</time>
      </trkpt>
      <trkpt lat="45.0288" lon="5.29185">
        <ele>218.80000305176</ele>
        <time>2012-07-06T14:18:28.000Z</time>
      </trkpt>
      <trkpt lat="45.02879" lon="5.29183">
        <ele>218.80000305176</ele>
        <time>2012-07-06T14:19:05.000Z</time>
      </trkpt>
      <trkpt lat="45.02878" lon="5.29183">
        <ele>220.60000610352</ele>
        <time>2012-07-06T14:19:18.000Z</time>
      </trkpt>
      <trkpt lat="45.02877" lon="5.29182">
        <ele>221.60000610352</ele>
        <time>2012-07-06T14:19:25.000Z</time>
      </trkpt>
      <trkpt lat="45.02879" lon="5.29183">
        <ele>220.60000610352</ele>
        <time>2012-07-06T14:19:42.000Z</time>
      </trkpt>
      <trkpt lat="45.0288" lon="5.29179">
        <ele>215.39999389648</ele>
        <time>2012-07-06T14:20:01.000Z</time>
      </trkpt>
      <trkpt lat="45.0288" lon="5.29179">
        <ele>216.80000305176</ele>
        <time>2012-07-06T14:20:14.000Z</time>
      </trkpt>
      <trkpt lat="45.02879" lon="5.29182">
        <ele>219.60000610352</ele>
        <time>2012-07-06T14:21:02.000Z</time>
      </trkpt>
      <trkpt lat="45.02878" lon="5.29184">
        <ele>219.60000610352</ele>
        <time>2012-07-06T14:21:24.000Z</time>
      </trkpt>
      <trkpt lat="45.02879" lon="5.29185">
        <ele>217.80000305176</ele>
        <time>2012-07-06T14:21:31.000Z</time>
      </trkpt>
      <trkpt lat="45.02879" lon="5.29183">
        <ele>218.19999694824</ele>
        <time>2012-07-06T14:21:51.000Z</time>
      </trkpt>
      <trkpt lat="45.02881" lon="5.29183">
        <ele>216.80000305176</ele>
        <time>2012-07-06T14:21:56.000Z</time>
      </trkpt>
      <trkpt lat="45.02886" lon="5.29176">
        <ele>215.80000305176</ele>
        <time>2012-07-06T14:22:01.000Z</time>
      </trkpt>
      <trkpt lat="45.02889" lon="5.29171">
        <ele>215.39999389648</ele>
        <time>2012-07-06T14:22:04.000Z</time>
      </trkpt>
      <trkpt lat="45.02896" lon="5.29159">
        <ele>214.80000305176</ele>
        <time>2012-07-06T14:22:10.000Z</time>
      </trkpt>
      <trkpt lat="45.02897" lon="5.29138">
        <ele>213.39999389648</ele>
        <time>2012-07-06T14:22:16.000Z</time>
      </trkpt>
      <trkpt lat="45.02886" lon="5.29111">
        <ele>214</ele>
        <time>2012-07-06T14:22:23.000Z</time>
      </trkpt>
      <trkpt lat="45.02871" lon="5.29086">
        <ele>213.39999389648</ele>
        <time>2012-07-06T14:22:31.000Z</time>
      </trkpt>
      <trkpt lat="45.0286" lon="5.29067">
        <ele>213.39999389648</ele>
        <time>2012-07-06T14:22:38.000Z</time>
      </trkpt>
      <trkpt lat="45.02854" lon="5.29052">
        <ele>214.80000305176</ele>
        <time>2012-07-06T14:22:43.000Z</time>
      </trkpt>
      <trkpt lat="45.02844" lon="5.29028">
        <ele>215.80000305176</ele>
        <time>2012-07-06T14:22:51.000Z</time>
      </trkpt>
      <trkpt lat="45.02835" lon="5.29003">
        <ele>216.80000305176</ele>
        <time>2012-07-06T14:23:00.000Z</time>
      </trkpt>
      <trkpt lat="45.0283" lon="5.28988">
        <ele>217.80000305176</ele>
        <time>2012-07-06T14:23:05.000Z</time>
      </trkpt>
      <trkpt lat="45.02833" lon="5.28972">
        <ele>219.60000610352</ele>
        <time>2012-07-06T14:23:10.000Z</time>
      </trkpt>
      <trkpt lat="45.0284" lon="5.28967">
        <ele>220.60000610352</ele>
        <time>2012-07-06T14:23:13.000Z</time>
      </trkpt>
      <trkpt lat="45.02862" lon="5.28963">
        <ele>222.60000610352</ele>
        <time>2012-07-06T14:23:20.000Z</time>
      </trkpt>
      <trkpt lat="45.02887" lon="5.28958">
        <ele>223.60000610352</ele>
        <time>2012-07-06T14:23:27.000Z</time>
      </trkpt>
      <trkpt lat="45.02924" lon="5.2895">
        <ele>224</ele>
        <time>2012-07-06T14:23:36.000Z</time>
      </trkpt>
      <trkpt lat="45.02933" lon="5.28949">
        <ele>224.60000610352</ele>
        <time>2012-07-06T14:23:38.000Z</time>
      </trkpt>
      <trkpt lat="45.02951" lon="5.2895">
        <ele>225.39999389648</ele>
        <time>2012-07-06T14:23:42.000Z</time>
      </trkpt>
      <trkpt lat="45.02984" lon="5.28966">
        <ele>227.80000305176</ele>
        <time>2012-07-06T14:23:50.000Z</time>
      </trkpt>
      <trkpt lat="45.03015" lon="5.28993">
        <ele>229.39999389648</ele>
        <time>2012-07-06T14:23:58.000Z</time>
      </trkpt>
      <trkpt lat="45.03046" lon="5.29021">
        <ele>229.39999389648</ele>
        <time>2012-07-06T14:24:05.000Z</time>
      </trkpt>
      <trkpt lat="45.03089" lon="5.29064">
        <ele>229.80000305176</ele>
        <time>2012-07-06T14:24:14.000Z</time>
      </trkpt>
      <trkpt lat="45.03121" lon="5.29096">
        <ele>229.80000305176</ele>
        <time>2012-07-06T14:24:20.000Z</time>
      </trkpt>
      <trkpt lat="45.03173" lon="5.29145">
        <ele>229.39999389648</ele>
        <time>2012-07-06T14:24:29.000Z</time>
      </trkpt>
      <trkpt lat="45.0321" lon="5.29176">
        <ele>229.39999389648</ele>
        <time>2012-07-06T14:24:36.000Z</time>
      </trkpt>
      <trkpt lat="45.03219" lon="5.29183">
        <ele>229.39999389648</ele>
        <time>2012-07-06T14:24:38.000Z</time>
      </trkpt>
      <trkpt lat="45.03229" lon="5.29194">
        <ele>229.80000305176</ele>
        <time>2012-07-06T14:24:41.000Z</time>
      </trkpt>
      <trkpt lat="45.03238" lon="5.292">
        <ele>229.80000305176</ele>
        <time>2012-07-06T14:24:47.000Z</time>
      </trkpt>
      <trkpt lat="45.03243" lon="5.29203">
        <ele>229.80000305176</ele>
        <time>2012-07-06T14:24:49.000Z</time>
      </trkpt>
      <trkpt lat="45.03268" lon="5.29222">
        <ele>229.80000305176</ele>
        <time>2012-07-06T14:24:56.000Z</time>
      </trkpt>
      <trkpt lat="45.033" lon="5.29248">
        <ele>230.19999694824</ele>
        <time>2012-07-06T14:25:03.000Z</time>
      </trkpt>
      <trkpt lat="45.03332" lon="5.29275">
        <ele>230.19999694824</ele>
        <time>2012-07-06T14:25:10.000Z</time>
      </trkpt>
      <trkpt lat="45.03368" lon="5.29306">
        <ele>230.19999694824</ele>
        <time>2012-07-06T14:25:17.000Z</time>
      </trkpt>
      <trkpt lat="45.03431" lon="5.29357">
        <ele>230.19999694824</ele>
        <time>2012-07-06T14:25:28.000Z</time>
      </trkpt>
      <trkpt lat="45.03464" lon="5.29394">
        <ele>230.80000305176</ele>
        <time>2012-07-06T14:25:35.000Z</time>
      </trkpt>
      <trkpt lat="45.03483" lon="5.29429">
        <ele>232.60000610352</ele>
        <time>2012-07-06T14:25:41.000Z</time>
      </trkpt>
      <trkpt lat="45.03508" lon="5.29481">
        <ele>235.60000610352</ele>
        <time>2012-07-06T14:25:50.000Z</time>
      </trkpt>
      <trkpt lat="45.03533" lon="5.29536">
        <ele>238</ele>
        <time>2012-07-06T14:26:00.000Z</time>
      </trkpt>
      <trkpt lat="45.03557" lon="5.29571">
        <ele>238.39999389648</ele>
        <time>2012-07-06T14:26:07.000Z</time>
      </trkpt>
      <trkpt lat="45.03593" lon="5.29613">
        <ele>237.39999389648</ele>
        <time>2012-07-06T14:26:16.000Z</time>
      </trkpt>
      <trkpt lat="45.03618" lon="5.29643">
        <ele>237</ele>
        <time>2012-07-06T14:26:22.000Z</time>
      </trkpt>
      <trkpt lat="45.0363" lon="5.29641">
        <ele>237</ele>
        <time>2012-07-06T14:26:25.000Z</time>
      </trkpt>
      <trkpt lat="45.03644" lon="5.2965">
        <ele>237.39999389648</ele>
        <time>2012-07-06T14:26:29.000Z</time>
      </trkpt>
      <trkpt lat="45.03647" lon="5.29655">
        <ele>237.39999389648</ele>
        <time>2012-07-06T14:26:30.000Z</time>
      </trkpt>
      <trkpt lat="45.03655" lon="5.29672">
        <ele>237.39999389648</ele>
        <time>2012-07-06T14:26:35.000Z</time>
      </trkpt>
      <trkpt lat="45.03658" lon="5.29685">
        <ele>237.39999389648</ele>
        <time>2012-07-06T14:26:39.000Z</time>
      </trkpt>
      <trkpt lat="45.03667" lon="5.29699">
        <ele>238</ele>
        <time>2012-07-06T14:26:42.000Z</time>
      </trkpt>
      <trkpt lat="45.03697" lon="5.2973">
        <ele>239</ele>
        <time>2012-07-06T14:26:50.000Z</time>
      </trkpt>
      <trkpt lat="45.03731" lon="5.29747">
        <ele>238</ele>
        <time>2012-07-06T14:26:57.000Z</time>
      </trkpt>
      <trkpt lat="45.03768" lon="5.29748">
        <ele>237</ele>
        <time>2012-07-06T14:27:03.000Z</time>
      </trkpt>
      <trkpt lat="45.03788" lon="5.29745">
        <ele>236.60000610352</ele>
        <time>2012-07-06T14:27:06.000Z</time>
      </trkpt>
      <trkpt lat="45.0385" lon="5.29738">
        <ele>235</ele>
        <time>2012-07-06T14:27:15.000Z</time>
      </trkpt>
      <trkpt lat="45.0389" lon="5.29739">
        <ele>235.60000610352</ele>
        <time>2012-07-06T14:27:22.000Z</time>
      </trkpt>
      <trkpt lat="45.03895" lon="5.29739">
        <ele>235.60000610352</ele>
        <time>2012-07-06T14:27:23.000Z</time>
      </trkpt>
      <trkpt lat="45.03904" lon="5.29741">
        <ele>235.60000610352</ele>
        <time>2012-07-06T14:27:25.000Z</time>
      </trkpt>
      <trkpt lat="45.03917" lon="5.29749">
        <ele>235.60000610352</ele>
        <time>2012-07-06T14:27:29.000Z</time>
      </trkpt>
      <trkpt lat="45.03924" lon="5.29758">
        <ele>234.60000610352</ele>
        <time>2012-07-06T14:27:31.000Z</time>
      </trkpt>
      <trkpt lat="45.0393" lon="5.29773">
        <ele>232.60000610352</ele>
        <time>2012-07-06T14:27:35.000Z</time>
      </trkpt>
      <trkpt lat="45.03932" lon="5.29772">
        <ele>232.19999694824</ele>
        <time>2012-07-06T14:27:38.000Z</time>
      </trkpt>
      <trkpt lat="45.03927" lon="5.29762">
        <ele>232.60000610352</ele>
        <time>2012-07-06T14:27:43.000Z</time>
      </trkpt>
      <trkpt lat="45.03914" lon="5.29744">
        <ele>234.60000610352</ele>
        <time>2012-07-06T14:27:49.000Z</time>
      </trkpt>
      <trkpt lat="45.03914" lon="5.29739">
        <ele>235.60000610352</ele>
        <time>2012-07-06T14:27:52.000Z</time>
      </trkpt>
      <trkpt lat="45.03918" lon="5.29736">
        <ele>235.60000610352</ele>
        <time>2012-07-06T14:27:54.000Z</time>
      </trkpt>
      <trkpt lat="45.03945" lon="5.2973">
        <ele>236.60000610352</ele>
        <time>2012-07-06T14:28:00.000Z</time>
      </trkpt>
      <trkpt lat="45.03971" lon="5.29724">
        <ele>238.39999389648</ele>
        <time>2012-07-06T14:28:05.000Z</time>
      </trkpt>
      <trkpt lat="45.04016" lon="5.29721">
        <ele>236.60000610352</ele>
        <time>2012-07-06T14:28:12.000Z</time>
      </trkpt>
      <trkpt lat="45.04077" lon="5.29714">
        <ele>233.60000610352</ele>
        <time>2012-07-06T14:28:20.000Z</time>
      </trkpt>
      <trkpt lat="45.04091" lon="5.29714">
        <ele>233.19999694824</ele>
        <time>2012-07-06T14:28:22.000Z</time>
      </trkpt>
      <trkpt lat="45.04108" lon="5.2972">
        <ele>233.19999694824</ele>
        <time>2012-07-06T14:28:26.000Z</time>
      </trkpt>
      <trkpt lat="45.04109" lon="5.2973">
        <ele>232.19999694824</ele>
        <time>2012-07-06T14:28:29.000Z</time>
      </trkpt>
      <trkpt lat="45.04109" lon="5.29744">
        <ele>231.19999694824</ele>
        <time>2012-07-06T14:28:31.000Z</time>
      </trkpt>
      <trkpt lat="45.04109" lon="5.29753">
        <ele>231.19999694824</ele>
        <time>2012-07-06T14:28:33.000Z</time>
      </trkpt>
      <trkpt lat="45.04112" lon="5.29749">
        <ele>230.19999694824</ele>
        <time>2012-07-06T14:28:37.000Z</time>
      </trkpt>
      <trkpt lat="45.04111" lon="5.29747">
        <ele>230.19999694824</ele>
        <time>2012-07-06T14:28:38.000Z</time>
      </trkpt>
      <trkpt lat="45.04107" lon="5.29729">
        <ele>231.19999694824</ele>
        <time>2012-07-06T14:28:44.000Z</time>
      </trkpt>
      <trkpt lat="45.04106" lon="5.29721">
        <ele>232.19999694824</ele>
        <time>2012-07-06T14:28:47.000Z</time>
      </trkpt>
      <trkpt lat="45.04103" lon="5.29717">
        <ele>232.19999694824</ele>
        <time>2012-07-06T14:28:51.000Z</time>
      </trkpt>
      <trkpt lat="45.041" lon="5.29715">
        <ele>234.19999694824</ele>
        <time>2012-07-06T14:28:57.000Z</time>
      </trkpt>
      <trkpt lat="45.04099" lon="5.29712">
        <ele>236.60000610352</ele>
        <time>2012-07-06T14:29:10.000Z</time>
      </trkpt>
      <trkpt lat="45.04105" lon="5.29719">
        <ele>235.60000610352</ele>
        <time>2012-07-06T14:29:16.000Z</time>
      </trkpt>
      <trkpt lat="45.04106" lon="5.29728">
        <ele>235</ele>
        <time>2012-07-06T14:29:20.000Z</time>
      </trkpt>
      <trkpt lat="45.04109" lon="5.29748">
        <ele>233.60000610352</ele>
        <time>2012-07-06T14:29:23.000Z</time>
      </trkpt>
      <trkpt lat="45.04113" lon="5.29766">
        <ele>232.60000610352</ele>
        <time>2012-07-06T14:29:25.000Z</time>
      </trkpt>
      <trkpt lat="45.04122" lon="5.2981">
        <ele>228.80000305176</ele>
        <time>2012-07-06T14:29:30.000Z</time>
      </trkpt>
      <trkpt lat="45.04126" lon="5.29855">
        <ele>225</ele>
        <time>2012-07-06T14:29:35.000Z</time>
      </trkpt>
      <trkpt lat="45.04132" lon="5.29901">
        <ele>221.60000610352</ele>
        <time>2012-07-06T14:29:40.000Z</time>
      </trkpt>
      <trkpt lat="45.0414" lon="5.2993">
        <ele>220.60000610352</ele>
        <time>2012-07-06T14:29:44.000Z</time>
      </trkpt>
      <trkpt lat="45.04144" lon="5.29948">
        <ele>220.60000610352</ele>
        <time>2012-07-06T14:29:47.000Z</time>
      </trkpt>
      <trkpt lat="45.04156" lon="5.29995">
        <ele>219.19999694824</ele>
        <time>2012-07-06T14:29:55.000Z</time>
      </trkpt>
      <trkpt lat="45.0416" lon="5.30022">
        <ele>219.19999694824</ele>
        <time>2012-07-06T14:30:00.000Z</time>
      </trkpt>
      <trkpt lat="45.04159" lon="5.30053">
        <ele>218.80000305176</ele>
        <time>2012-07-06T14:30:05.000Z</time>
      </trkpt>
      <trkpt lat="45.04158" lon="5.3007">
        <ele>217.80000305176</ele>
        <time>2012-07-06T14:30:07.000Z</time>
      </trkpt>
      <trkpt lat="45.04155" lon="5.30109">
        <ele>214</ele>
        <time>2012-07-06T14:30:11.000Z</time>
      </trkpt>
      <trkpt lat="45.04165" lon="5.30118">
        <ele>210</ele>
        <time>2012-07-06T14:30:14.000Z</time>
      </trkpt>
      <trkpt lat="45.04172" lon="5.30119">
        <ele>207.19999694824</ele>
        <time>2012-07-06T14:30:16.000Z</time>
      </trkpt>
      <trkpt lat="45.0419" lon="5.30134">
        <ele>203.39999389648</ele>
        <time>2012-07-06T14:30:21.000Z</time>
      </trkpt>
      <trkpt lat="45.04229" lon="5.3015">
        <ele>196.19999694824</ele>
        <time>2012-07-06T14:30:26.000Z</time>
      </trkpt>
      <trkpt lat="45.04241" lon="5.3017">
        <ele>194.19999694824</ele>
        <time>2012-07-06T14:30:30.000Z</time>
      </trkpt>
      <trkpt lat="45.04238" lon="5.30172">
        <ele>190.39999389648</ele>
        <time>2012-07-06T14:30:36.000Z</time>
      </trkpt>
      <trkpt lat="45.04236" lon="5.30173">
        <ele>190.80000305176</ele>
        <time>2012-07-06T14:30:40.000Z</time>
      </trkpt>
      <trkpt lat="45.04239" lon="5.30176">
        <ele>194.19999694824</ele>
        <time>2012-07-06T14:30:48.000Z</time>
      </trkpt>
      <trkpt lat="45.04244" lon="5.30174">
        <ele>191.80000305176</ele>
        <time>2012-07-06T14:31:11.000Z</time>
      </trkpt>
      <trkpt lat="45.04242" lon="5.30172">
        <ele>192.39999389648</ele>
        <time>2012-07-06T14:31:16.000Z</time>
      </trkpt>
      <trkpt lat="45.0424" lon="5.30161">
        <ele>192.39999389648</ele>
        <time>2012-07-06T14:31:20.000Z</time>
      </trkpt>
      <trkpt lat="45.04232" lon="5.30147">
        <ele>193.19999694824</ele>
        <time>2012-07-06T14:31:26.000Z</time>
      </trkpt>
      <trkpt lat="45.04229" lon="5.30145">
        <ele>194.19999694824</ele>
        <time>2012-07-06T14:31:28.000Z</time>
      </trkpt>
      <trkpt lat="45.0422" lon="5.3014">
        <ele>196.19999694824</ele>
        <time>2012-07-06T14:31:35.000Z</time>
      </trkpt>
      <trkpt lat="45.04217" lon="5.30138">
        <ele>196.19999694824</ele>
        <time>2012-07-06T14:31:38.000Z</time>
      </trkpt>
      <trkpt lat="45.04206" lon="5.30131">
        <ele>196.19999694824</ele>
        <time>2012-07-06T14:31:46.000Z</time>
      </trkpt>
      <trkpt lat="45.04195" lon="5.30126">
        <ele>197.60000610352</ele>
        <time>2012-07-06T14:31:54.000Z</time>
      </trkpt>
      <trkpt lat="45.04187" lon="5.3012">
        <ele>199</ele>
        <time>2012-07-06T14:32:00.000Z</time>
      </trkpt>
      <trkpt lat="45.04181" lon="5.30114">
        <ele>199.60000610352</ele>
        <time>2012-07-06T14:32:06.000Z</time>
      </trkpt>
      <trkpt lat="45.0418" lon="5.30112">
        <ele>200</ele>
        <time>2012-07-06T14:32:08.000Z</time>
      </trkpt>
      <trkpt lat="45.04184" lon="5.3011">
        <ele>200</ele>
        <time>2012-07-06T14:32:13.000Z</time>
      </trkpt>
      <trkpt lat="45.04203" lon="5.30124">
        <ele>200.39999389648</ele>
        <time>2012-07-06T14:32:19.000Z</time>
      </trkpt>
      <trkpt lat="45.0423" lon="5.30134">
        <ele>206.19999694824</ele>
        <time>2012-07-06T14:32:24.000Z</time>
      </trkpt>
      <trkpt lat="45.04235" lon="5.30136">
        <ele>206.80000305176</ele>
        <time>2012-07-06T14:32:25.000Z</time>
      </trkpt>
      <trkpt lat="45.04249" lon="5.30145">
        <ele>206.80000305176</ele>
        <time>2012-07-06T14:32:28.000Z</time>
      </trkpt>
      <trkpt lat="45.04265" lon="5.30175">
        <ele>206.19999694824</ele>
        <time>2012-07-06T14:32:33.000Z</time>
      </trkpt>
      <trkpt lat="45.04273" lon="5.30209">
        <ele>206.19999694824</ele>
        <time>2012-07-06T14:32:38.000Z</time>
      </trkpt>
      <trkpt lat="45.04285" lon="5.30225">
        <ele>205.19999694824</ele>
        <time>2012-07-06T14:32:42.000Z</time>
      </trkpt>
      <trkpt lat="45.04299" lon="5.30231">
        <ele>204.80000305176</ele>
        <time>2012-07-06T14:32:45.000Z</time>
      </trkpt>
      <trkpt lat="45.04319" lon="5.30241">
        <ele>203.39999389648</ele>
        <time>2012-07-06T14:32:49.000Z</time>
      </trkpt>
      <trkpt lat="45.04358" lon="5.30248">
        <ele>203.39999389648</ele>
        <time>2012-07-06T14:32:56.000Z</time>
      </trkpt>
      <trkpt lat="45.04385" lon="5.30253">
        <ele>203.80000305176</ele>
        <time>2012-07-06T14:33:01.000Z</time>
      </trkpt>
      <trkpt lat="45.04398" lon="5.30252">
        <ele>203.80000305176</ele>
        <time>2012-07-06T14:33:03.000Z</time>
      </trkpt>
      <trkpt lat="45.04421" lon="5.30238">
        <ele>203.39999389648</ele>
        <time>2012-07-06T14:33:07.000Z</time>
      </trkpt>
      <trkpt lat="45.04436" lon="5.3022">
        <ele>202.80000305176</ele>
        <time>2012-07-06T14:33:10.000Z</time>
      </trkpt>
      <trkpt lat="45.04455" lon="5.30181">
        <ele>202.80000305176</ele>
        <time>2012-07-06T14:33:15.000Z</time>
      </trkpt>
      <trkpt lat="45.04481" lon="5.30153">
        <ele>203.80000305176</ele>
        <time>2012-07-06T14:33:20.000Z</time>
      </trkpt>
      <trkpt lat="45.04495" lon="5.30149">
        <ele>203.39999389648</ele>
        <time>2012-07-06T14:33:22.000Z</time>
      </trkpt>
      <trkpt lat="45.04521" lon="5.30146">
        <ele>203.39999389648</ele>
        <time>2012-07-06T14:33:26.000Z</time>
      </trkpt>
      <trkpt lat="45.04545" lon="5.30143">
        <ele>202</ele>
        <time>2012-07-06T14:33:30.000Z</time>
      </trkpt>
      <trkpt lat="45.04549" lon="5.30142">
        <ele>202.39999389648</ele>
        <time>2012-07-06T14:33:31.000Z</time>
      </trkpt>
      <trkpt lat="45.04558" lon="5.3014">
        <ele>202.39999389648</ele>
        <time>2012-07-06T14:33:33.000Z</time>
      </trkpt>
      <trkpt lat="45.04578" lon="5.30138">
        <ele>202.39999389648</ele>
        <time>2012-07-06T14:33:37.000Z</time>
      </trkpt>
      <trkpt lat="45.04609" lon="5.30137">
        <ele>203.80000305176</ele>
        <time>2012-07-06T14:33:42.000Z</time>
      </trkpt>
      <trkpt lat="45.04617" lon="5.3014">
        <ele>204.39999389648</ele>
        <time>2012-07-06T14:33:44.000Z</time>
      </trkpt>
      <trkpt lat="45.04635" lon="5.30147">
        <ele>202.80000305176</ele>
        <time>2012-07-06T14:33:49.000Z</time>
      </trkpt>
      <trkpt lat="45.04648" lon="5.30152">
        <ele>202.39999389648</ele>
        <time>2012-07-06T14:33:54.000Z</time>
      </trkpt>
      <trkpt lat="45.04657" lon="5.30155">
        <ele>204.80000305176</ele>
        <time>2012-07-06T14:33:58.000Z</time>
      </trkpt>
      <trkpt lat="45.0466" lon="5.30153">
        <ele>206.19999694824</ele>
        <time>2012-07-06T14:34:04.000Z</time>
      </trkpt>
      <trkpt lat="45.04664" lon="5.30158">
        <ele>218.19999694824</ele>
        <time>2012-07-06T14:34:27.000Z</time>
      </trkpt>
      <trkpt lat="45.04664" lon="5.30161">
        <ele>218.19999694824</ele>
        <time>2012-07-06T14:34:29.000Z</time>
      </trkpt>
      <trkpt lat="45.04664" lon="5.30175">
        <ele>217.19999694824</ele>
        <time>2012-07-06T14:34:36.000Z</time>
      </trkpt>
      <trkpt lat="45.04664" lon="5.30183">
        <ele>214.39999389648</ele>
        <time>2012-07-06T14:34:40.000Z</time>
      </trkpt>
      <trkpt lat="45.04668" lon="5.30193">
        <ele>215.39999389648</ele>
        <time>2012-07-06T14:34:44.000Z</time>
      </trkpt>
      <trkpt lat="45.04668" lon="5.30209">
        <ele>218.19999694824</ele>
        <time>2012-07-06T14:34:50.000Z</time>
      </trkpt>
      <trkpt lat="45.04667" lon="5.3022">
        <ele>221.19999694824</ele>
        <time>2012-07-06T14:34:55.000Z</time>
      </trkpt>
      <trkpt lat="45.04666" lon="5.30232">
        <ele>223</ele>
        <time>2012-07-06T14:35:00.000Z</time>
      </trkpt>
      <trkpt lat="45.04662" lon="5.30239">
        <ele>226.39999389648</ele>
        <time>2012-07-06T14:35:05.000Z</time>
      </trkpt>
      <trkpt lat="45.0466" lon="5.30242">
        <ele>229.80000305176</ele>
        <time>2012-07-06T14:35:12.000Z</time>
      </trkpt>
      <trkpt lat="45.04658" lon="5.30249">
        <ele>225.39999389648</ele>
        <time>2012-07-06T14:35:30.000Z</time>
      </trkpt>
      <trkpt lat="45.04654" lon="5.30252">
        <ele>224.60000610352</ele>
        <time>2012-07-06T14:35:34.000Z</time>
      </trkpt>
      <trkpt lat="45.04646" lon="5.3026">
        <ele>225</ele>
        <time>2012-07-06T14:35:41.000Z</time>
      </trkpt>
      <trkpt lat="45.04644" lon="5.30261">
        <ele>225.39999389648</ele>
        <time>2012-07-06T14:35:42.000Z</time>
      </trkpt>
      <trkpt lat="45.04633" lon="5.30268">
        <ele>226.39999389648</ele>
        <time>2012-07-06T14:35:48.000Z</time>
      </trkpt>
      <trkpt lat="45.04622" lon="5.30274">
        <ele>227.39999389648</ele>
        <time>2012-07-06T14:35:55.000Z</time>
      </trkpt>
      <trkpt lat="45.04612" lon="5.3028">
        <ele>227.80000305176</ele>
        <time>2012-07-06T14:36:01.000Z</time>
      </trkpt>
      <trkpt lat="45.046" lon="5.30286">
        <ele>229.80000305176</ele>
        <time>2012-07-06T14:36:08.000Z</time>
      </trkpt>
      <trkpt lat="45.04593" lon="5.30291">
        <ele>231.80000305176</ele>
        <time>2012-07-06T14:36:14.000Z</time>
      </trkpt>
      <trkpt lat="45.04589" lon="5.30295">
        <ele>232.19999694824</ele>
        <time>2012-07-06T14:36:18.000Z</time>
      </trkpt>
      <trkpt lat="45.04577" lon="5.30304">
        <ele>235.60000610352</ele>
        <time>2012-07-06T14:36:26.000Z</time>
      </trkpt>
      <trkpt lat="45.04567" lon="5.30313">
        <ele>237</ele>
        <time>2012-07-06T14:36:33.000Z</time>
      </trkpt>
      <trkpt lat="45.04555" lon="5.30325">
        <ele>238.39999389648</ele>
        <time>2012-07-06T14:36:41.000Z</time>
      </trkpt>
      <trkpt lat="45.0455" lon="5.30343">
        <ele>239.80000305176</ele>
        <time>2012-07-06T14:36:48.000Z</time>
      </trkpt>
      <trkpt lat="45.04545" lon="5.30368">
        <ele>240.39999389648</ele>
        <time>2012-07-06T14:36:54.000Z</time>
      </trkpt>
      <trkpt lat="45.04539" lon="5.30403">
        <ele>240.39999389648</ele>
        <time>2012-07-06T14:37:01.000Z</time>
      </trkpt>
      <trkpt lat="45.04532" lon="5.30448">
        <ele>240.80000305176</ele>
        <time>2012-07-06T14:37:09.000Z</time>
      </trkpt>
      <trkpt lat="45.04525" lon="5.30489">
        <ele>241.80000305176</ele>
        <time>2012-07-06T14:37:15.000Z</time>
      </trkpt>
      <trkpt lat="45.04517" lon="5.30555">
        <ele>242.19999694824</ele>
        <time>2012-07-06T14:37:25.000Z</time>
      </trkpt>
      <trkpt lat="45.04514" lon="5.30597">
        <ele>241.39999389648</ele>
        <time>2012-07-06T14:37:31.000Z</time>
      </trkpt>
      <trkpt lat="45.04512" lon="5.30619">
        <ele>241.39999389648</ele>
        <time>2012-07-06T14:37:34.000Z</time>
      </trkpt>
      <trkpt lat="45.04506" lon="5.30637">
        <ele>240.39999389648</ele>
        <time>2012-07-06T14:37:37.000Z</time>
      </trkpt>
      <trkpt lat="45.04492" lon="5.30667">
        <ele>235.60000610352</ele>
        <time>2012-07-06T14:37:43.000Z</time>
      </trkpt>
      <trkpt lat="45.04499" lon="5.30677">
        <ele>233.19999694824</ele>
        <time>2012-07-06T14:37:46.000Z</time>
      </trkpt>
      <trkpt lat="45.04511" lon="5.30679">
        <ele>231.80000305176</ele>
        <time>2012-07-06T14:37:48.000Z</time>
      </trkpt>
      <trkpt lat="45.0454" lon="5.30678">
        <ele>229.39999389648</ele>
        <time>2012-07-06T14:37:52.000Z</time>
      </trkpt>
      <trkpt lat="45.0457" lon="5.30667">
        <ele>227.39999389648</ele>
        <time>2012-07-06T14:37:56.000Z</time>
      </trkpt>
      <trkpt lat="45.04594" lon="5.30668">
        <ele>226</ele>
        <time>2012-07-06T14:38:00.000Z</time>
      </trkpt>
      <trkpt lat="45.04606" lon="5.30675">
        <ele>226.39999389648</ele>
        <time>2012-07-06T14:38:03.000Z</time>
      </trkpt>
      <trkpt lat="45.04621" lon="5.30682">
        <ele>225.39999389648</ele>
        <time>2012-07-06T14:38:07.000Z</time>
      </trkpt>
      <trkpt lat="45.04631" lon="5.3068">
        <ele>226</ele>
        <time>2012-07-06T14:38:09.000Z</time>
      </trkpt>
      <trkpt lat="45.04659" lon="5.30686">
        <ele>224.60000610352</ele>
        <time>2012-07-06T14:38:15.000Z</time>
      </trkpt>
      <trkpt lat="45.04687" lon="5.30696">
        <ele>227</ele>
        <time>2012-07-06T14:38:21.000Z</time>
      </trkpt>
      <trkpt lat="45.0471" lon="5.30703">
        <ele>228.80000305176</ele>
        <time>2012-07-06T14:38:27.000Z</time>
      </trkpt>
      <trkpt lat="45.04729" lon="5.30707">
        <ele>230.19999694824</ele>
        <time>2012-07-06T14:38:32.000Z</time>
      </trkpt>
      <trkpt lat="45.04749" lon="5.30711">
        <ele>231.19999694824</ele>
        <time>2012-07-06T14:38:38.000Z</time>
      </trkpt>
      <trkpt lat="45.04768" lon="5.30711">
        <ele>233.60000610352</ele>
        <time>2012-07-06T14:38:43.000Z</time>
      </trkpt>
      <trkpt lat="45.04781" lon="5.3071">
        <ele>236.60000610352</ele>
        <time>2012-07-06T14:38:49.000Z</time>
      </trkpt>
      <trkpt lat="45.04794" lon="5.30712">
        <ele>241.39999389648</ele>
        <time>2012-07-06T14:38:55.000Z</time>
      </trkpt>
      <trkpt lat="45.04807" lon="5.30716">
        <ele>242.19999694824</ele>
        <time>2012-07-06T14:39:01.000Z</time>
      </trkpt>
      <trkpt lat="45.04821" lon="5.30728">
        <ele>244.60000610352</ele>
        <time>2012-07-06T14:39:07.000Z</time>
      </trkpt>
      <trkpt lat="45.04831" lon="5.30741">
        <ele>244.19999694824</ele>
        <time>2012-07-06T14:39:14.000Z</time>
      </trkpt>
      <trkpt lat="45.04839" lon="5.3075">
        <ele>244.19999694824</ele>
        <time>2012-07-06T14:39:19.000Z</time>
      </trkpt>
      <trkpt lat="45.04847" lon="5.30765">
        <ele>242.80000305176</ele>
        <time>2012-07-06T14:39:24.000Z</time>
      </trkpt>
      <trkpt lat="45.04853" lon="5.30779">
        <ele>240.80000305176</ele>
        <time>2012-07-06T14:39:30.000Z</time>
      </trkpt>
      <trkpt lat="45.04859" lon="5.30798">
        <ele>239.80000305176</ele>
        <time>2012-07-06T14:39:35.000Z</time>
      </trkpt>
      <trkpt lat="45.04862" lon="5.30812">
        <ele>240.39999389648</ele>
        <time>2012-07-06T14:39:39.000Z</time>
      </trkpt>
      <trkpt lat="45.04874" lon="5.30841">
        <ele>243.19999694824</ele>
        <time>2012-07-06T14:39:46.000Z</time>
      </trkpt>
      <trkpt lat="45.04885" lon="5.30868">
        <ele>244.19999694824</ele>
        <time>2012-07-06T14:39:53.000Z</time>
      </trkpt>
      <trkpt lat="45.04891" lon="5.30893">
        <ele>244.19999694824</ele>
        <time>2012-07-06T14:40:00.000Z</time>
      </trkpt>
      <trkpt lat="45.04894" lon="5.30913">
        <ele>244.19999694824</ele>
        <time>2012-07-06T14:40:06.000Z</time>
      </trkpt>
      <trkpt lat="45.04895" lon="5.30936">
        <ele>249</ele>
        <time>2012-07-06T14:40:12.000Z</time>
      </trkpt>
      <trkpt lat="45.04892" lon="5.30957">
        <ele>252</ele>
        <time>2012-07-06T14:40:18.000Z</time>
      </trkpt>
      <trkpt lat="45.04892" lon="5.30976">
        <ele>256.20001220703</ele>
        <time>2012-07-06T14:40:24.000Z</time>
      </trkpt>
      <trkpt lat="45.04893" lon="5.30995">
        <ele>260.60000610352</ele>
        <time>2012-07-06T14:40:29.000Z</time>
      </trkpt>
      <trkpt lat="45.0489" lon="5.31016">
        <ele>261.60000610352</ele>
        <time>2012-07-06T14:40:34.000Z</time>
      </trkpt>
      <trkpt lat="45.04892" lon="5.31045">
        <ele>264.79998779297</ele>
        <time>2012-07-06T14:40:40.000Z</time>
      </trkpt>
      <trkpt lat="45.04898" lon="5.31076">
        <ele>268.79998779297</ele>
        <time>2012-07-06T14:40:47.000Z</time>
      </trkpt>
      <trkpt lat="45.04908" lon="5.31085">
        <ele>267.20001220703</ele>
        <time>2012-07-06T14:40:52.000Z</time>
      </trkpt>
      <trkpt lat="45.04922" lon="5.31093">
        <ele>267.20001220703</ele>
        <time>2012-07-06T14:40:59.000Z</time>
      </trkpt>
      <trkpt lat="45.04923" lon="5.31095">
        <ele>267.20001220703</ele>
        <time>2012-07-06T14:41:00.000Z</time>
      </trkpt>
      <trkpt lat="45.04918" lon="5.31119">
        <ele>267.20001220703</ele>
        <time>2012-07-06T14:41:06.000Z</time>
      </trkpt>
      <trkpt lat="45.04914" lon="5.3114">
        <ele>266.79998779297</ele>
        <time>2012-07-06T14:41:12.000Z</time>
      </trkpt>
      <trkpt lat="45.04912" lon="5.31146">
        <ele>266.39999389648</ele>
        <time>2012-07-06T14:41:14.000Z</time>
      </trkpt>
      <trkpt lat="45.04918" lon="5.31156">
        <ele>265.79998779297</ele>
        <time>2012-07-06T14:41:18.000Z</time>
      </trkpt>
      <trkpt lat="45.04921" lon="5.31156">
        <ele>266.39999389648</ele>
        <time>2012-07-06T14:41:19.000Z</time>
      </trkpt>
      <trkpt lat="45.04945" lon="5.3116">
        <ele>267.79998779297</ele>
        <time>2012-07-06T14:41:25.000Z</time>
      </trkpt>
      <trkpt lat="45.04951" lon="5.31172">
        <ele>266.79998779297</ele>
        <time>2012-07-06T14:41:31.000Z</time>
      </trkpt>
      <trkpt lat="45.04961" lon="5.31183">
        <ele>266.79998779297</ele>
        <time>2012-07-06T14:41:36.000Z</time>
      </trkpt>
      <trkpt lat="45.04981" lon="5.31196">
        <ele>266.39999389648</ele>
        <time>2012-07-06T14:41:42.000Z</time>
      </trkpt>
      <trkpt lat="45.04998" lon="5.31206">
        <ele>264.79998779297</ele>
        <time>2012-07-06T14:41:46.000Z</time>
      </trkpt>
      <trkpt lat="45.05008" lon="5.31235">
        <ele>263.39999389648</ele>
        <time>2012-07-06T14:41:50.000Z</time>
      </trkpt>
      <trkpt lat="45.05012" lon="5.31258">
        <ele>262.39999389648</ele>
        <time>2012-07-06T14:41:53.000Z</time>
      </trkpt>
      <trkpt lat="45.05025" lon="5.31278">
        <ele>264.79998779297</ele>
        <time>2012-07-06T14:41:58.000Z</time>
      </trkpt>
      <trkpt lat="45.05025" lon="5.31302">
        <ele>265.79998779297</ele>
        <time>2012-07-06T14:42:05.000Z</time>
      </trkpt>
      <trkpt lat="45.05029" lon="5.31317">
        <ele>266.79998779297</ele>
        <time>2012-07-06T14:42:10.000Z</time>
      </trkpt>
      <trkpt lat="45.0503" lon="5.31331">
        <ele>268.20001220703</ele>
        <time>2012-07-06T14:42:14.000Z</time>
      </trkpt>
      <trkpt lat="45.05035" lon="5.31343">
        <ele>268.79998779297</ele>
        <time>2012-07-06T14:42:18.000Z</time>
      </trkpt>
      <trkpt lat="45.05046" lon="5.31354">
        <ele>269.20001220703</ele>
        <time>2012-07-06T14:42:23.000Z</time>
      </trkpt>
      <trkpt lat="45.05066" lon="5.31358">
        <ele>270.20001220703</ele>
        <time>2012-07-06T14:42:29.000Z</time>
      </trkpt>
      <trkpt lat="45.05086" lon="5.31365">
        <ele>271.60000610352</ele>
        <time>2012-07-06T14:42:35.000Z</time>
      </trkpt>
      <trkpt lat="45.05088" lon="5.31378">
        <ele>272</ele>
        <time>2012-07-06T14:42:39.000Z</time>
      </trkpt>
      <trkpt lat="45.05087" lon="5.31381">
        <ele>272.60000610352</ele>
        <time>2012-07-06T14:42:40.000Z</time>
      </trkpt>
      <trkpt lat="45.05081" lon="5.31405">
        <ele>274.39999389648</ele>
        <time>2012-07-06T14:42:46.000Z</time>
      </trkpt>
      <trkpt lat="45.0508" lon="5.31425">
        <ele>274.39999389648</ele>
        <time>2012-07-06T14:42:51.000Z</time>
      </trkpt>
      <trkpt lat="45.05081" lon="5.31429">
        <ele>274.39999389648</ele>
        <time>2012-07-06T14:42:52.000Z</time>
      </trkpt>
      <trkpt lat="45.0508" lon="5.31446">
        <ele>274.39999389648</ele>
        <time>2012-07-06T14:42:57.000Z</time>
      </trkpt>
      <trkpt lat="45.05076" lon="5.31466">
        <ele>273.60000610352</ele>
        <time>2012-07-06T14:43:03.000Z</time>
      </trkpt>
      <trkpt lat="45.0507" lon="5.3148">
        <ele>274.39999389648</ele>
        <time>2012-07-06T14:43:07.000Z</time>
      </trkpt>
      <trkpt lat="45.05059" lon="5.31503">
        <ele>275.39999389648</ele>
        <time>2012-07-06T14:43:14.000Z</time>
      </trkpt>
      <trkpt lat="45.05055" lon="5.31512">
        <ele>276</ele>
        <time>2012-07-06T14:43:18.000Z</time>
      </trkpt>
      <trkpt lat="45.05051" lon="5.31524">
        <ele>277.39999389648</ele>
        <time>2012-07-06T14:43:23.000Z</time>
      </trkpt>
      <trkpt lat="45.05043" lon="5.31542">
        <ele>279.79998779297</ele>
        <time>2012-07-06T14:43:30.000Z</time>
      </trkpt>
      <trkpt lat="45.05034" lon="5.31549">
        <ele>282.60000610352</ele>
        <time>2012-07-06T14:43:36.000Z</time>
      </trkpt>
      <trkpt lat="45.0502" lon="5.31555">
        <ele>285.60000610352</ele>
        <time>2012-07-06T14:43:43.000Z</time>
      </trkpt>
      <trkpt lat="45.05006" lon="5.31563">
        <ele>286.60000610352</ele>
        <time>2012-07-06T14:43:50.000Z</time>
      </trkpt>
      <trkpt lat="45.04995" lon="5.31566">
        <ele>288.39999389648</ele>
        <time>2012-07-06T14:43:56.000Z</time>
      </trkpt>
      <trkpt lat="45.04982" lon="5.31564">
        <ele>291.39999389648</ele>
        <time>2012-07-06T14:44:02.000Z</time>
      </trkpt>
      <trkpt lat="45.04969" lon="5.31559">
        <ele>292.20001220703</ele>
        <time>2012-07-06T14:44:08.000Z</time>
      </trkpt>
      <trkpt lat="45.0496" lon="5.31556">
        <ele>293.79998779297</ele>
        <time>2012-07-06T14:44:12.000Z</time>
      </trkpt>
      <trkpt lat="45.04957" lon="5.31564">
        <ele>295.60000610352</ele>
        <time>2012-07-06T14:44:17.000Z</time>
      </trkpt>
      <trkpt lat="45.04968" lon="5.31573">
        <ele>298</ele>
        <time>2012-07-06T14:44:22.000Z</time>
      </trkpt>
      <trkpt lat="45.04983" lon="5.3159">
        <ele>301</ele>
        <time>2012-07-06T14:44:28.000Z</time>
      </trkpt>
      <trkpt lat="45.04988" lon="5.31601">
        <ele>299</ele>
        <time>2012-07-06T14:44:31.000Z</time>
      </trkpt>
      <trkpt lat="45.04984" lon="5.31612">
        <ele>297.60000610352</ele>
        <time>2012-07-06T14:44:35.000Z</time>
      </trkpt>
      <trkpt lat="45.04971" lon="5.31617">
        <ele>299.39999389648</ele>
        <time>2012-07-06T14:44:41.000Z</time>
      </trkpt>
      <trkpt lat="45.04956" lon="5.3162">
        <ele>300</ele>
        <time>2012-07-06T14:44:47.000Z</time>
      </trkpt>
      <trkpt lat="45.04944" lon="5.31621">
        <ele>301</ele>
        <time>2012-07-06T14:44:52.000Z</time>
      </trkpt>
      <trkpt lat="45.0493" lon="5.31618">
        <ele>303.39999389648</ele>
        <time>2012-07-06T14:44:58.000Z</time>
      </trkpt>
      <trkpt lat="45.0492" lon="5.3162">
        <ele>306.20001220703</ele>
        <time>2012-07-06T14:45:03.000Z</time>
      </trkpt>
      <trkpt lat="45.04907" lon="5.31623">
        <ele>307.20001220703</ele>
        <time>2012-07-06T14:45:08.000Z</time>
      </trkpt>
      <trkpt lat="45.04897" lon="5.31623">
        <ele>308.20001220703</ele>
        <time>2012-07-06T14:45:12.000Z</time>
      </trkpt>
      <trkpt lat="45.04881" lon="5.31624">
        <ele>310.60000610352</ele>
        <time>2012-07-06T14:45:18.000Z</time>
      </trkpt>
      <trkpt lat="45.04867" lon="5.31629">
        <ele>312</ele>
        <time>2012-07-06T14:45:23.000Z</time>
      </trkpt>
      <trkpt lat="45.04855" lon="5.31637">
        <ele>313.39999389648</ele>
        <time>2012-07-06T14:45:29.000Z</time>
      </trkpt>
      <trkpt lat="45.04837" lon="5.31647">
        <ele>314.79998779297</ele>
        <time>2012-07-06T14:45:35.000Z</time>
      </trkpt>
      <trkpt lat="45.04817" lon="5.31651">
        <ele>314.79998779297</ele>
        <time>2012-07-06T14:45:41.000Z</time>
      </trkpt>
      <trkpt lat="45.04802" lon="5.31657">
        <ele>315.79998779297</ele>
        <time>2012-07-06T14:45:47.000Z</time>
      </trkpt>
      <trkpt lat="45.04786" lon="5.31661">
        <ele>316.39999389648</ele>
        <time>2012-07-06T14:45:52.000Z</time>
      </trkpt>
      <trkpt lat="45.04772" lon="5.3166">
        <ele>316.39999389648</ele>
        <time>2012-07-06T14:45:56.000Z</time>
      </trkpt>
      <trkpt lat="45.04752" lon="5.31661">
        <ele>317.20001220703</ele>
        <time>2012-07-06T14:46:01.000Z</time>
      </trkpt>
      <trkpt lat="45.04724" lon="5.31662">
        <ele>319.60000610352</ele>
        <time>2012-07-06T14:46:08.000Z</time>
      </trkpt>
      <trkpt lat="45.04715" lon="5.31661">
        <ele>320.20001220703</ele>
        <time>2012-07-06T14:46:10.000Z</time>
      </trkpt>
      <trkpt lat="45.04696" lon="5.31657">
        <ele>321.20001220703</ele>
        <time>2012-07-06T14:46:15.000Z</time>
      </trkpt>
      <trkpt lat="45.04676" lon="5.31651">
        <ele>322</ele>
        <time>2012-07-06T14:46:20.000Z</time>
      </trkpt>
      <trkpt lat="45.04658" lon="5.31648">
        <ele>322.60000610352</ele>
        <time>2012-07-06T14:46:25.000Z</time>
      </trkpt>
      <trkpt lat="45.04648" lon="5.31649">
        <ele>323</ele>
        <time>2012-07-06T14:46:27.000Z</time>
      </trkpt>
      <trkpt lat="45.04619" lon="5.31642">
        <ele>323.60000610352</ele>
        <time>2012-07-06T14:46:33.000Z</time>
      </trkpt>
      <trkpt lat="45.04591" lon="5.31634">
        <ele>321.60000610352</ele>
        <time>2012-07-06T14:46:38.000Z</time>
      </trkpt>
      <trkpt lat="45.04579" lon="5.31629">
        <ele>320.20001220703</ele>
        <time>2012-07-06T14:46:40.000Z</time>
      </trkpt>
      <trkpt lat="45.04553" lon="5.31628">
        <ele>318.20001220703</ele>
        <time>2012-07-06T14:46:44.000Z</time>
      </trkpt>
      <trkpt lat="45.04511" lon="5.31646">
        <ele>314.79998779297</ele>
        <time>2012-07-06T14:46:50.000Z</time>
      </trkpt>
      <trkpt lat="45.04472" lon="5.31669">
        <ele>312</ele>
        <time>2012-07-06T14:46:55.000Z</time>
      </trkpt>
      <trkpt lat="45.04458" lon="5.31692">
        <ele>309.60000610352</ele>
        <time>2012-07-06T14:46:59.000Z</time>
      </trkpt>
      <trkpt lat="45.04462" lon="5.31701">
        <ele>309.20001220703</ele>
        <time>2012-07-06T14:47:00.000Z</time>
      </trkpt>
      <trkpt lat="45.04468" lon="5.31722">
        <ele>308.60000610352</ele>
        <time>2012-07-06T14:47:02.000Z</time>
      </trkpt>
      <trkpt lat="45.04465" lon="5.31776">
        <ele>307.20001220703</ele>
        <time>2012-07-06T14:47:07.000Z</time>
      </trkpt>
      <trkpt lat="45.04463" lon="5.31804">
        <ele>306.60000610352</ele>
        <time>2012-07-06T14:47:10.000Z</time>
      </trkpt>
      <trkpt lat="45.04461" lon="5.31818">
        <ele>306.60000610352</ele>
        <time>2012-07-06T14:47:12.000Z</time>
      </trkpt>
      <trkpt lat="45.0446" lon="5.3184">
        <ele>309.60000610352</ele>
        <time>2012-07-06T14:47:17.000Z</time>
      </trkpt>
      <trkpt lat="45.04462" lon="5.31848">
        <ele>310.60000610352</ele>
        <time>2012-07-06T14:47:20.000Z</time>
      </trkpt>
      <trkpt lat="45.04471" lon="5.31857">
        <ele>313.39999389648</ele>
        <time>2012-07-06T14:47:25.000Z</time>
      </trkpt>
      <trkpt lat="45.04485" lon="5.31863">
        <ele>314</ele>
        <time>2012-07-06T14:47:30.000Z</time>
      </trkpt>
      <trkpt lat="45.04497" lon="5.31865">
        <ele>315.39999389648</ele>
        <time>2012-07-06T14:47:35.000Z</time>
      </trkpt>
      <trkpt lat="45.04507" lon="5.31861">
        <ele>316.39999389648</ele>
        <time>2012-07-06T14:47:40.000Z</time>
      </trkpt>
      <trkpt lat="45.04515" lon="5.31858">
        <ele>317.20001220703</ele>
        <time>2012-07-06T14:47:44.000Z</time>
      </trkpt>
      <trkpt lat="45.04527" lon="5.31856">
        <ele>317.79998779297</ele>
        <time>2012-07-06T14:47:49.000Z</time>
      </trkpt>
      <trkpt lat="45.04536" lon="5.31856">
        <ele>318.79998779297</ele>
        <time>2012-07-06T14:47:53.000Z</time>
      </trkpt>
      <trkpt lat="45.04536" lon="5.31855">
        <ele>319.20001220703</ele>
        <time>2012-07-06T14:47:54.000Z</time>
      </trkpt>
      <trkpt lat="45.04526" lon="5.31855">
        <ele>320.20001220703</ele>
        <time>2012-07-06T14:48:01.000Z</time>
      </trkpt>
      <trkpt lat="45.04515" lon="5.31856">
        <ele>319.60000610352</ele>
        <time>2012-07-06T14:48:06.000Z</time>
      </trkpt>
      <trkpt lat="45.04502" lon="5.31861">
        <ele>320.20001220703</ele>
        <time>2012-07-06T14:48:10.000Z</time>
      </trkpt>
      <trkpt lat="45.0448" lon="5.3186">
        <ele>319.20001220703</ele>
        <time>2012-07-06T14:48:15.000Z</time>
      </trkpt>
      <trkpt lat="45.04457" lon="5.31846">
        <ele>314.39999389648</ele>
        <time>2012-07-06T14:48:19.000Z</time>
      </trkpt>
      <trkpt lat="45.04455" lon="5.31822">
        <ele>312</ele>
        <time>2012-07-06T14:48:23.000Z</time>
      </trkpt>
      <trkpt lat="45.04456" lon="5.31811">
        <ele>313.39999389648</ele>
        <time>2012-07-06T14:48:27.000Z</time>
      </trkpt>
      <trkpt lat="45.04458" lon="5.31808">
        <ele>312.39999389648</ele>
        <time>2012-07-06T14:48:32.000Z</time>
      </trkpt>
      <trkpt lat="45.04457" lon="5.31807">
        <ele>313</ele>
        <time>2012-07-06T14:48:33.000Z</time>
      </trkpt>
      <trkpt lat="45.04456" lon="5.31808">
        <ele>313.39999389648</ele>
        <time>2012-07-06T14:48:35.000Z</time>
      </trkpt>
      <trkpt lat="45.04458" lon="5.31808">
        <ele>313</ele>
        <time>2012-07-06T14:48:37.000Z</time>
      </trkpt>
      <trkpt lat="45.04461" lon="5.31783">
        <ele>311.60000610352</ele>
        <time>2012-07-06T14:48:42.000Z</time>
      </trkpt>
      <trkpt lat="45.04463" lon="5.31776">
        <ele>311.60000610352</ele>
        <time>2012-07-06T14:48:43.000Z</time>
      </trkpt>
      <trkpt lat="45.04466" lon="5.31745">
        <ele>312.39999389648</ele>
        <time>2012-07-06T14:48:47.000Z</time>
      </trkpt>
      <trkpt lat="45.04471" lon="5.31718">
        <ele>313</ele>
        <time>2012-07-06T14:48:51.000Z</time>
      </trkpt>
      <trkpt lat="45.04472" lon="5.31702">
        <ele>312.39999389648</ele>
        <time>2012-07-06T14:48:54.000Z</time>
      </trkpt>
      <trkpt lat="45.04468" lon="5.31687">
        <ele>311</ele>
        <time>2012-07-06T14:49:00.000Z</time>
      </trkpt>
      <trkpt lat="45.04461" lon="5.31677">
        <ele>312</ele>
        <time>2012-07-06T14:49:07.000Z</time>
      </trkpt>
      <trkpt lat="45.04454" lon="5.31675">
        <ele>312</ele>
        <time>2012-07-06T14:49:12.000Z</time>
      </trkpt>
      <trkpt lat="45.04444" lon="5.31674">
        <ele>312</ele>
        <time>2012-07-06T14:49:17.000Z</time>
      </trkpt>
      <trkpt lat="45.0443" lon="5.31675">
        <ele>314.39999389648</ele>
        <time>2012-07-06T14:49:23.000Z</time>
      </trkpt>
      <trkpt lat="45.04416" lon="5.31676">
        <ele>315.79998779297</ele>
        <time>2012-07-06T14:49:29.000Z</time>
      </trkpt>
      <trkpt lat="45.04406" lon="5.31676">
        <ele>317.20001220703</ele>
        <time>2012-07-06T14:49:34.000Z</time>
      </trkpt>
      <trkpt lat="45.04391" lon="5.31682">
        <ele>317.79998779297</ele>
        <time>2012-07-06T14:49:40.000Z</time>
      </trkpt>
      <trkpt lat="45.04382" lon="5.31698">
        <ele>318.20001220703</ele>
        <time>2012-07-06T14:49:45.000Z</time>
      </trkpt>
      <trkpt lat="45.04377" lon="5.31719">
        <ele>316.39999389648</ele>
        <time>2012-07-06T14:49:48.000Z</time>
      </trkpt>
      <trkpt lat="45.0437" lon="5.31748">
        <ele>311</ele>
        <time>2012-07-06T14:49:51.000Z</time>
      </trkpt>
      <trkpt lat="45.04354" lon="5.31807">
        <ele>304.79998779297</ele>
        <time>2012-07-06T14:49:56.000Z</time>
      </trkpt>
      <trkpt lat="45.04351" lon="5.31815">
        <ele>302.39999389648</ele>
        <time>2012-07-06T14:49:57.000Z</time>
      </trkpt>
      <trkpt lat="45.04341" lon="5.31831">
        <ele>300.39999389648</ele>
        <time>2012-07-06T14:49:59.000Z</time>
      </trkpt>
      <trkpt lat="45.04326" lon="5.31857">
        <ele>295.20001220703</ele>
        <time>2012-07-06T14:50:02.000Z</time>
      </trkpt>
      <trkpt lat="45.04326" lon="5.31887">
        <ele>284.20001220703</ele>
        <time>2012-07-06T14:50:06.000Z</time>
      </trkpt>
      <trkpt lat="45.04349" lon="5.31912">
        <ele>276.79998779297</ele>
        <time>2012-07-06T14:50:10.000Z</time>
      </trkpt>
      <trkpt lat="45.04355" lon="5.31921">
        <ele>276.79998779297</ele>
        <time>2012-07-06T14:50:11.000Z</time>
      </trkpt>
      <trkpt lat="45.04392" lon="5.31955">
        <ele>291.79998779297</ele>
        <time>2012-07-06T14:50:15.000Z</time>
      </trkpt>
      <trkpt lat="45.04398" lon="5.31959">
        <ele>293.79998779297</ele>
        <time>2012-07-06T14:50:16.000Z</time>
      </trkpt>
      <trkpt lat="45.0441" lon="5.31978">
        <ele>298.60000610352</ele>
        <time>2012-07-06T14:50:20.000Z</time>
      </trkpt>
      <trkpt lat="45.04412" lon="5.31982">
        <ele>300.39999389648</ele>
        <time>2012-07-06T14:50:21.000Z</time>
      </trkpt>
      <trkpt lat="45.0442" lon="5.32004">
        <ele>310.60000610352</ele>
        <time>2012-07-06T14:50:27.000Z</time>
      </trkpt>
      <trkpt lat="45.04428" lon="5.32013">
        <ele>314.79998779297</ele>
        <time>2012-07-06T14:50:30.000Z</time>
      </trkpt>
      <trkpt lat="45.04439" lon="5.32026">
        <ele>320.60000610352</ele>
        <time>2012-07-06T14:50:35.000Z</time>
      </trkpt>
      <trkpt lat="45.04454" lon="5.32032">
        <ele>325.39999389648</ele>
        <time>2012-07-06T14:50:40.000Z</time>
      </trkpt>
      <trkpt lat="45.04467" lon="5.32038">
        <ele>328.79998779297</ele>
        <time>2012-07-06T14:50:45.000Z</time>
      </trkpt>
      <trkpt lat="45.04477" lon="5.3205">
        <ele>328.79998779297</ele>
        <time>2012-07-06T14:50:50.000Z</time>
      </trkpt>
      <trkpt lat="45.04486" lon="5.3206">
        <ele>326.79998779297</ele>
        <time>2012-07-06T14:50:55.000Z</time>
      </trkpt>
      <trkpt lat="45.04492" lon="5.32064">
        <ele>325.39999389648</ele>
        <time>2012-07-06T14:51:00.000Z</time>
      </trkpt>
      <trkpt lat="45.04494" lon="5.32067">
        <ele>321.20001220703</ele>
        <time>2012-07-06T14:51:14.000Z</time>
      </trkpt>
      <trkpt lat="45.04498" lon="5.32071">
        <ele>321.20001220703</ele>
        <time>2012-07-06T14:51:18.000Z</time>
      </trkpt>
      <trkpt lat="45.04509" lon="5.32084">
        <ele>321.20001220703</ele>
        <time>2012-07-06T14:51:25.000Z</time>
      </trkpt>
      <trkpt lat="45.04518" lon="5.32099">
        <ele>318.79998779297</ele>
        <time>2012-07-06T14:51:32.000Z</time>
      </trkpt>
      <trkpt lat="45.04521" lon="5.32107">
        <ele>320.20001220703</ele>
        <time>2012-07-06T14:51:36.000Z</time>
      </trkpt>
      <trkpt lat="45.04526" lon="5.32123">
        <ele>322.60000610352</ele>
        <time>2012-07-06T14:51:43.000Z</time>
      </trkpt>
      <trkpt lat="45.04525" lon="5.32137">
        <ele>324.39999389648</ele>
        <time>2012-07-06T14:51:48.000Z</time>
      </trkpt>
      <trkpt lat="45.04522" lon="5.3215">
        <ele>328.39999389648</ele>
        <time>2012-07-06T14:51:52.000Z</time>
      </trkpt>
      <trkpt lat="45.04512" lon="5.32171">
        <ele>328.39999389648</ele>
        <time>2012-07-06T14:51:55.000Z</time>
      </trkpt>
      <trkpt lat="45.04506" lon="5.32181">
        <ele>327.39999389648</ele>
        <time>2012-07-06T14:51:56.000Z</time>
      </trkpt>
      <trkpt lat="45.04481" lon="5.32208">
        <ele>325.39999389648</ele>
        <time>2012-07-06T14:52:00.000Z</time>
      </trkpt>
      <trkpt lat="45.04469" lon="5.3223">
        <ele>322.60000610352</ele>
        <time>2012-07-06T14:52:03.000Z</time>
      </trkpt>
      <trkpt lat="45.04475" lon="5.32252">
        <ele>322</ele>
        <time>2012-07-06T14:52:06.000Z</time>
      </trkpt>
      <trkpt lat="45.04478" lon="5.32258">
        <ele>321.20001220703</ele>
        <time>2012-07-06T14:52:07.000Z</time>
      </trkpt>
      <trkpt lat="45.04492" lon="5.32279">
        <ele>319.60000610352</ele>
        <time>2012-07-06T14:52:11.000Z</time>
      </trkpt>
      <trkpt lat="45.04501" lon="5.32305">
        <ele>317.79998779297</ele>
        <time>2012-07-06T14:52:16.000Z</time>
      </trkpt>
      <trkpt lat="45.04496" lon="5.32314">
        <ele>319.20001220703</ele>
        <time>2012-07-06T14:52:19.000Z</time>
      </trkpt>
      <trkpt lat="45.04489" lon="5.32334">
        <ele>318.20001220703</ele>
        <time>2012-07-06T14:52:24.000Z</time>
      </trkpt>
      <trkpt lat="45.04489" lon="5.3234">
        <ele>317.20001220703</ele>
        <time>2012-07-06T14:52:25.000Z</time>
      </trkpt>
      <trkpt lat="45.04508" lon="5.32376">
        <ele>314.79998779297</ele>
        <time>2012-07-06T14:52:29.000Z</time>
      </trkpt>
      <trkpt lat="45.04524" lon="5.32441">
        <ele>312</ele>
        <time>2012-07-06T14:52:35.000Z</time>
      </trkpt>
      <trkpt lat="45.0453" lon="5.32479">
        <ele>309.20001220703</ele>
        <time>2012-07-06T14:52:39.000Z</time>
      </trkpt>
      <trkpt lat="45.04544" lon="5.32525">
        <ele>307.60000610352</ele>
        <time>2012-07-06T14:52:44.000Z</time>
      </trkpt>
      <trkpt lat="45.04553" lon="5.32545">
        <ele>307.20001220703</ele>
        <time>2012-07-06T14:52:46.000Z</time>
      </trkpt>
      <trkpt lat="45.04579" lon="5.32577">
        <ele>302.79998779297</ele>
        <time>2012-07-06T14:52:50.000Z</time>
      </trkpt>
      <trkpt lat="45.04595" lon="5.326">
        <ele>295.60000610352</ele>
        <time>2012-07-06T14:52:54.000Z</time>
      </trkpt>
      <trkpt lat="45.04601" lon="5.32609">
        <ele>292.79998779297</ele>
        <time>2012-07-06T14:52:56.000Z</time>
      </trkpt>
      <trkpt lat="45.04617" lon="5.32625">
        <ele>286.60000610352</ele>
        <time>2012-07-06T14:53:01.000Z</time>
      </trkpt>
      <trkpt lat="45.04654" lon="5.32653">
        <ele>283.20001220703</ele>
        <time>2012-07-06T14:53:07.000Z</time>
      </trkpt>
      <trkpt lat="45.04685" lon="5.32685">
        <ele>278.39999389648</ele>
        <time>2012-07-06T14:53:13.000Z</time>
      </trkpt>
      <trkpt lat="45.0469" lon="5.32691">
        <ele>277.39999389648</ele>
        <time>2012-07-06T14:53:14.000Z</time>
      </trkpt>
      <trkpt lat="45.04705" lon="5.32722">
        <ele>267.20001220703</ele>
        <time>2012-07-06T14:53:18.000Z</time>
      </trkpt>
      <trkpt lat="45.04718" lon="5.32768">
        <ele>261</ele>
        <time>2012-07-06T14:53:23.000Z</time>
      </trkpt>
      <trkpt lat="45.04719" lon="5.32775">
        <ele>261</ele>
        <time>2012-07-06T14:53:24.000Z</time>
      </trkpt>
      <trkpt lat="45.0472" lon="5.32795">
        <ele>261.60000610352</ele>
        <time>2012-07-06T14:53:28.000Z</time>
      </trkpt>
      <trkpt lat="45.04722" lon="5.328">
        <ele>262.39999389648</ele>
        <time>2012-07-06T14:53:31.000Z</time>
      </trkpt>
      <trkpt lat="45.04721" lon="5.32801">
        <ele>262.39999389648</ele>
        <time>2012-07-06T14:53:38.000Z</time>
      </trkpt>
      <trkpt lat="45.04725" lon="5.32802">
        <ele>265.39999389648</ele>
        <time>2012-07-06T14:53:51.000Z</time>
      </trkpt>
      <trkpt lat="45.04722" lon="5.32804">
        <ele>266.39999389648</ele>
        <time>2012-07-06T14:53:54.000Z</time>
      </trkpt>
      <trkpt lat="45.04714" lon="5.32804">
        <ele>263.39999389648</ele>
        <time>2012-07-06T14:53:59.000Z</time>
      </trkpt>
      <trkpt lat="45.04692" lon="5.32804">
        <ele>256.79998779297</ele>
        <time>2012-07-06T14:54:04.000Z</time>
      </trkpt>
      <trkpt lat="45.04654" lon="5.32809">
        <ele>256.20001220703</ele>
        <time>2012-07-06T14:54:10.000Z</time>
      </trkpt>
      <trkpt lat="45.0461" lon="5.32816">
        <ele>255.19999694824</ele>
        <time>2012-07-06T14:54:17.000Z</time>
      </trkpt>
      <trkpt lat="45.04569" lon="5.32827">
        <ele>255.80000305176</ele>
        <time>2012-07-06T14:54:24.000Z</time>
      </trkpt>
      <trkpt lat="45.04538" lon="5.32838">
        <ele>256.20001220703</ele>
        <time>2012-07-06T14:54:30.000Z</time>
      </trkpt>
      <trkpt lat="45.04528" lon="5.32845">
        <ele>256.20001220703</ele>
        <time>2012-07-06T14:54:32.000Z</time>
      </trkpt>
      <trkpt lat="45.04514" lon="5.32861">
        <ele>256.79998779297</ele>
        <time>2012-07-06T14:54:36.000Z</time>
      </trkpt>
      <trkpt lat="45.04496" lon="5.32891">
        <ele>257.60000610352</ele>
        <time>2012-07-06T14:54:41.000Z</time>
      </trkpt>
      <trkpt lat="45.04489" lon="5.32907">
        <ele>258.20001220703</ele>
        <time>2012-07-06T14:54:44.000Z</time>
      </trkpt>
      <trkpt lat="45.04481" lon="5.32926">
        <ele>258.60000610352</ele>
        <time>2012-07-06T14:54:47.000Z</time>
      </trkpt>
      <trkpt lat="45.04479" lon="5.32941">
        <ele>258.20001220703</ele>
        <time>2012-07-06T14:54:49.000Z</time>
      </trkpt>
      <trkpt lat="45.04483" lon="5.32968">
        <ele>257.20001220703</ele>
        <time>2012-07-06T14:54:53.000Z</time>
      </trkpt>
      <trkpt lat="45.04493" lon="5.32993">
        <ele>256.20001220703</ele>
        <time>2012-07-06T14:54:57.000Z</time>
      </trkpt>
      <trkpt lat="45.04509" lon="5.32989">
        <ele>257.60000610352</ele>
        <time>2012-07-06T14:55:02.000Z</time>
      </trkpt>
      <trkpt lat="45.0451" lon="5.32989">
        <ele>258.20001220703</ele>
        <time>2012-07-06T14:55:04.000Z</time>
      </trkpt>
      <trkpt lat="45.04508" lon="5.32996">
        <ele>260.60000610352</ele>
        <time>2012-07-06T14:55:09.000Z</time>
      </trkpt>
      <trkpt lat="45.04505" lon="5.33014">
        <ele>263.39999389648</ele>
        <time>2012-07-06T14:55:17.000Z</time>
      </trkpt>
      <trkpt lat="45.04504" lon="5.3303">
        <ele>264.79998779297</ele>
        <time>2012-07-06T14:55:24.000Z</time>
      </trkpt>
      <trkpt lat="45.04505" lon="5.33046">
        <ele>264.79998779297</ele>
        <time>2012-07-06T14:55:30.000Z</time>
      </trkpt>
      <trkpt lat="45.04509" lon="5.3307">
        <ele>267.20001220703</ele>
        <time>2012-07-06T14:55:38.000Z</time>
      </trkpt>
      <trkpt lat="45.04513" lon="5.33089">
        <ele>270.20001220703</ele>
        <time>2012-07-06T14:55:45.000Z</time>
      </trkpt>
      <trkpt lat="45.04515" lon="5.33098">
        <ele>271.20001220703</ele>
        <time>2012-07-06T14:55:49.000Z</time>
      </trkpt>
      <trkpt lat="45.0452" lon="5.33111">
        <ele>271.60000610352</ele>
        <time>2012-07-06T14:55:55.000Z</time>
      </trkpt>
      <trkpt lat="45.04526" lon="5.33121">
        <ele>273.60000610352</ele>
        <time>2012-07-06T14:56:01.000Z</time>
      </trkpt>
      <trkpt lat="45.04536" lon="5.33129">
        <ele>276.39999389648</ele>
        <time>2012-07-06T14:56:09.000Z</time>
      </trkpt>
      <trkpt lat="45.04543" lon="5.33135">
        <ele>279.79998779297</ele>
        <time>2012-07-06T14:56:15.000Z</time>
      </trkpt>
      <trkpt lat="45.04551" lon="5.3314">
        <ele>282.20001220703</ele>
        <time>2012-07-06T14:56:22.000Z</time>
      </trkpt>
      <trkpt lat="45.04559" lon="5.33146">
        <ele>283.20001220703</ele>
        <time>2012-07-06T14:56:29.000Z</time>
      </trkpt>
      <trkpt lat="45.04565" lon="5.33152">
        <ele>285</ele>
        <time>2012-07-06T14:56:35.000Z</time>
      </trkpt>
      <trkpt lat="45.04574" lon="5.33159">
        <ele>286</ele>
        <time>2012-07-06T14:56:41.000Z</time>
      </trkpt>
      <trkpt lat="45.04584" lon="5.33169">
        <ele>287.39999389648</ele>
        <time>2012-07-06T14:56:46.000Z</time>
      </trkpt>
      <trkpt lat="45.04601" lon="5.33183">
        <ele>288.39999389648</ele>
        <time>2012-07-06T14:56:52.000Z</time>
      </trkpt>
      <trkpt lat="45.04632" lon="5.33205">
        <ele>289</ele>
        <time>2012-07-06T14:57:00.000Z</time>
      </trkpt>
      <trkpt lat="45.04665" lon="5.33229">
        <ele>289.39999389648</ele>
        <time>2012-07-06T14:57:07.000Z</time>
      </trkpt>
      <trkpt lat="45.04709" lon="5.3326">
        <ele>289</ele>
        <time>2012-07-06T14:57:15.000Z</time>
      </trkpt>
      <trkpt lat="45.04751" lon="5.33281">
        <ele>290.39999389648</ele>
        <time>2012-07-06T14:57:22.000Z</time>
      </trkpt>
      <trkpt lat="45.04797" lon="5.333">
        <ele>289.79998779297</ele>
        <time>2012-07-06T14:57:30.000Z</time>
      </trkpt>
      <trkpt lat="45.04809" lon="5.33307">
        <ele>289.79998779297</ele>
        <time>2012-07-06T14:57:32.000Z</time>
      </trkpt>
      <trkpt lat="45.04851" lon="5.3334">
        <ele>289</ele>
        <time>2012-07-06T14:57:40.000Z</time>
      </trkpt>
      <trkpt lat="45.04875" lon="5.3336">
        <ele>289</ele>
        <time>2012-07-06T14:57:45.000Z</time>
      </trkpt>
      <trkpt lat="45.04887" lon="5.33371">
        <ele>289.39999389648</ele>
        <time>2012-07-06T14:57:48.000Z</time>
      </trkpt>
      <trkpt lat="45.04909" lon="5.3341">
        <ele>289.39999389648</ele>
        <time>2012-07-06T14:57:55.000Z</time>
      </trkpt>
      <trkpt lat="45.04916" lon="5.33428">
        <ele>289.39999389648</ele>
        <time>2012-07-06T14:57:58.000Z</time>
      </trkpt>
      <trkpt lat="45.04915" lon="5.33455">
        <ele>289.39999389648</ele>
        <time>2012-07-06T14:58:02.000Z</time>
      </trkpt>
      <trkpt lat="45.04909" lon="5.33466">
        <ele>289</ele>
        <time>2012-07-06T14:58:04.000Z</time>
      </trkpt>
      <trkpt lat="45.04886" lon="5.33516">
        <ele>289.79998779297</ele>
        <time>2012-07-06T14:58:12.000Z</time>
      </trkpt>
      <trkpt lat="45.04865" lon="5.33567">
        <ele>290.79998779297</ele>
        <time>2012-07-06T14:58:20.000Z</time>
      </trkpt>
      <trkpt lat="45.04851" lon="5.33623">
        <ele>291.39999389648</ele>
        <time>2012-07-06T14:58:28.000Z</time>
      </trkpt>
      <trkpt lat="45.04836" lon="5.33695">
        <ele>292.20001220703</ele>
        <time>2012-07-06T14:58:38.000Z</time>
      </trkpt>
      <trkpt lat="45.04826" lon="5.33752">
        <ele>293.20001220703</ele>
        <time>2012-07-06T14:58:46.000Z</time>
      </trkpt>
      <trkpt lat="45.04823" lon="5.33774">
        <ele>293.79998779297</ele>
        <time>2012-07-06T14:58:49.000Z</time>
      </trkpt>
      <trkpt lat="45.0482" lon="5.33803">
        <ele>293.79998779297</ele>
        <time>2012-07-06T14:58:53.000Z</time>
      </trkpt>
      <trkpt lat="45.04808" lon="5.33877">
        <ele>295.60000610352</ele>
        <time>2012-07-06T14:59:03.000Z</time>
      </trkpt>
      <trkpt lat="45.04797" lon="5.33935">
        <ele>296.60000610352</ele>
        <time>2012-07-06T14:59:11.000Z</time>
      </trkpt>
      <trkpt lat="45.04781" lon="5.33989">
        <ele>297.60000610352</ele>
        <time>2012-07-06T14:59:19.000Z</time>
      </trkpt>
      <trkpt lat="45.04771" lon="5.34025">
        <ele>298</ele>
        <time>2012-07-06T14:59:25.000Z</time>
      </trkpt>
      <trkpt lat="45.04767" lon="5.34036">
        <ele>298</ele>
        <time>2012-07-06T14:59:27.000Z</time>
      </trkpt>
      <trkpt lat="45.0476" lon="5.34067">
        <ele>300.39999389648</ele>
        <time>2012-07-06T14:59:32.000Z</time>
      </trkpt>
      <trkpt lat="45.04756" lon="5.34079">
        <ele>301.39999389648</ele>
        <time>2012-07-06T14:59:34.000Z</time>
      </trkpt>
      <trkpt lat="45.04732" lon="5.34087">
        <ele>301.79998779297</ele>
        <time>2012-07-06T14:59:38.000Z</time>
      </trkpt>
      <trkpt lat="45.04725" lon="5.34076">
        <ele>302.39999389648</ele>
        <time>2012-07-06T14:59:41.000Z</time>
      </trkpt>
      <trkpt lat="45.04724" lon="5.34071">
        <ele>302.39999389648</ele>
        <time>2012-07-06T14:59:42.000Z</time>
      </trkpt>
      <trkpt lat="45.04714" lon="5.34056">
        <ele>301.79998779297</ele>
        <time>2012-07-06T14:59:47.000Z</time>
      </trkpt>
      <trkpt lat="45.0471" lon="5.34052">
        <ele>301.79998779297</ele>
        <time>2012-07-06T14:59:49.000Z</time>
      </trkpt>
      <trkpt lat="45.04709" lon="5.34047">
        <ele>302.39999389648</ele>
        <time>2012-07-06T14:59:51.000Z</time>
      </trkpt>
      <trkpt lat="45.04717" lon="5.34035">
        <ele>303.79998779297</ele>
        <time>2012-07-06T14:59:56.000Z</time>
      </trkpt>
      <trkpt lat="45.04725" lon="5.34025">
        <ele>306.20001220703</ele>
        <time>2012-07-06T14:59:59.000Z</time>
      </trkpt>
    </trkseg>
  </trk>
</gpx>